<?xml version="1.0" encoding="UTF-8" standalone="no" ?>
<gpx xmlns="http://www.topografix.com/GPX/1/1" xmlns:xsi="http://www.w3.org/2001/XMLSchema-instance" xsi:schemaLocation="http://www.topografix.com/GPX/1/1 http://www.topografix.com/GPX/1/1/gpx.xsd" version="1.1" creator="VisuGPX - https://www.visugpx.com">
  <metadata>
    <name>TOUR QUEYRAS_JOUR 4 : LA MONTA-ABRIES par variante crête de Gilly</name>
    <desc><![CDATA[

]]></desc>
  </metadata>
  <trk>
    <name><![CDATA[TOUR QUEYRAS_JOUR 4 : LA MONTA-ABRIES par variante crête de Gilly]]></name>
    <extensions>
      <line xmlns="http://www.topografix.com/GPX/gpx_style/0/2">
        <color>000000</color>
        <width>4</width>
      </line>
    </extensions>
    <trkseg>
      <trkpt lat="44.76646" lon="6.98401">
        <ele>1657.45</ele>
        <time>2018-09-12T06:15:19Z</time>
      </trkpt>
      <trkpt lat="44.76641" lon="6.98397">
        <ele>1658.89</ele>
        <time>2018-09-12T06:17:35Z</time>
      </trkpt>
      <trkpt lat="44.76627" lon="6.98394">
        <ele>1656.49</ele>
        <time>2018-09-12T06:17:51Z</time>
      </trkpt>
      <trkpt lat="44.76617" lon="6.98388">
        <ele>1654.57</ele>
        <time>2018-09-12T06:18:05Z</time>
      </trkpt>
      <trkpt lat="44.76611" lon="6.98378">
        <ele>1654.09</ele>
        <time>2018-09-12T06:18:15Z</time>
      </trkpt>
      <trkpt lat="44.76609" lon="6.98362">
        <ele>1654.09</ele>
        <time>2018-09-12T06:18:28Z</time>
      </trkpt>
      <trkpt lat="44.7661" lon="6.98344">
        <ele>1653.12</ele>
        <time>2018-09-12T06:18:39Z</time>
      </trkpt>
      <trkpt lat="44.76613" lon="6.98328">
        <ele>1653.6</ele>
        <time>2018-09-12T06:18:49Z</time>
      </trkpt>
      <trkpt lat="44.76616" lon="6.98312">
        <ele>1653.6</ele>
        <time>2018-09-12T06:18:59Z</time>
      </trkpt>
      <trkpt lat="44.76619" lon="6.98296">
        <ele>1653.12</ele>
        <time>2018-09-12T06:19:11Z</time>
      </trkpt>
      <trkpt lat="44.76625" lon="6.98283">
        <ele>1653.12</ele>
        <time>2018-09-12T06:19:22Z</time>
      </trkpt>
      <trkpt lat="44.76634" lon="6.9829">
        <ele>1655.05</ele>
        <time>2018-09-12T06:19:37Z</time>
      </trkpt>
      <trkpt lat="44.76644" lon="6.98296">
        <ele>1656.97</ele>
        <time>2018-09-12T06:19:51Z</time>
      </trkpt>
      <trkpt lat="44.76652" lon="6.98302">
        <ele>1658.89</ele>
        <time>2018-09-12T06:20:09Z</time>
      </trkpt>
      <trkpt lat="44.76665" lon="6.98312">
        <ele>1660.81</ele>
        <time>2018-09-12T06:20:28Z</time>
      </trkpt>
      <trkpt lat="44.76672" lon="6.9832">
        <ele>1663.7</ele>
        <time>2018-09-12T06:20:44Z</time>
      </trkpt>
      <trkpt lat="44.76681" lon="6.98327">
        <ele>1665.14</ele>
        <time>2018-09-12T06:21:01Z</time>
      </trkpt>
      <trkpt lat="44.7669" lon="6.98335">
        <ele>1667.06</ele>
        <time>2018-09-12T06:21:17Z</time>
      </trkpt>
      <trkpt lat="44.767" lon="6.98341">
        <ele>1668.02</ele>
        <time>2018-09-12T06:21:33Z</time>
      </trkpt>
      <trkpt lat="44.76708" lon="6.98348">
        <ele>1669.47</ele>
        <time>2018-09-12T06:21:49Z</time>
      </trkpt>
      <trkpt lat="44.76717" lon="6.98355">
        <ele>1671.87</ele>
        <time>2018-09-12T06:22:04Z</time>
      </trkpt>
      <trkpt lat="44.76725" lon="6.98366">
        <ele>1673.79</ele>
        <time>2018-09-12T06:22:20Z</time>
      </trkpt>
      <trkpt lat="44.76733" lon="6.98373">
        <ele>1675.23</ele>
        <time>2018-09-12T06:22:35Z</time>
      </trkpt>
      <trkpt lat="44.76742" lon="6.98383">
        <ele>1677.16</ele>
        <time>2018-09-12T06:22:53Z</time>
      </trkpt>
      <trkpt lat="44.76749" lon="6.98395">
        <ele>1678.6</ele>
        <time>2018-09-12T06:23:12Z</time>
      </trkpt>
      <trkpt lat="44.76754" lon="6.98412">
        <ele>1680.52</ele>
        <time>2018-09-12T06:23:30Z</time>
      </trkpt>
      <trkpt lat="44.76754" lon="6.9843">
        <ele>1682.93</ele>
        <time>2018-09-12T06:23:48Z</time>
      </trkpt>
      <trkpt lat="44.76758" lon="6.98446">
        <ele>1684.85</ele>
        <time>2018-09-12T06:24:07Z</time>
      </trkpt>
      <trkpt lat="44.76763" lon="6.98461">
        <ele>1686.77</ele>
        <time>2018-09-12T06:24:25Z</time>
      </trkpt>
      <trkpt lat="44.76768" lon="6.98477">
        <ele>1688.69</ele>
        <time>2018-09-12T06:24:41Z</time>
      </trkpt>
      <trkpt lat="44.76772" lon="6.98488">
        <ele>1690.14</ele>
        <time>2018-09-12T06:24:57Z</time>
      </trkpt>
      <trkpt lat="44.76779" lon="6.98499">
        <ele>1692.54</ele>
        <time>2018-09-12T06:25:12Z</time>
      </trkpt>
      <trkpt lat="44.76783" lon="6.98513">
        <ele>1693.5</ele>
        <time>2018-09-12T06:25:26Z</time>
      </trkpt>
      <trkpt lat="44.76787" lon="6.98524">
        <ele>1696.38</ele>
        <time>2018-09-12T06:25:41Z</time>
      </trkpt>
      <trkpt lat="44.76789" lon="6.98538">
        <ele>1698.31</ele>
        <time>2018-09-12T06:25:57Z</time>
      </trkpt>
      <trkpt lat="44.76794" lon="6.9855">
        <ele>1699.75</ele>
        <time>2018-09-12T06:26:14Z</time>
      </trkpt>
      <trkpt lat="44.76802" lon="6.98561">
        <ele>1702.15</ele>
        <time>2018-09-12T06:26:31Z</time>
      </trkpt>
      <trkpt lat="44.76809" lon="6.98571">
        <ele>1704.07</ele>
        <time>2018-09-12T06:26:46Z</time>
      </trkpt>
      <trkpt lat="44.76816" lon="6.9858">
        <ele>1706</ele>
        <time>2018-09-12T06:27:02Z</time>
      </trkpt>
      <trkpt lat="44.76826" lon="6.98584">
        <ele>1708.4</ele>
        <time>2018-09-12T06:27:21Z</time>
      </trkpt>
      <trkpt lat="44.76837" lon="6.98585">
        <ele>1707.92</ele>
        <time>2018-09-12T06:27:37Z</time>
      </trkpt>
      <trkpt lat="44.76848" lon="6.98576">
        <ele>1710.32</ele>
        <time>2018-09-12T06:27:53Z</time>
      </trkpt>
      <trkpt lat="44.76853" lon="6.98591">
        <ele>1711.76</ele>
        <time>2018-09-12T06:28:10Z</time>
      </trkpt>
      <trkpt lat="44.76856" lon="6.98606">
        <ele>1714.17</ele>
        <time>2018-09-12T06:28:27Z</time>
      </trkpt>
      <trkpt lat="44.76863" lon="6.98617">
        <ele>1715.61</ele>
        <time>2018-09-12T06:28:42Z</time>
      </trkpt>
      <trkpt lat="44.7687" lon="6.98628">
        <ele>1718.01</ele>
        <time>2018-09-12T06:28:58Z</time>
      </trkpt>
      <trkpt lat="44.76876" lon="6.9864">
        <ele>1719.94</ele>
        <time>2018-09-12T06:29:13Z</time>
      </trkpt>
      <trkpt lat="44.76883" lon="6.98649">
        <ele>1721.38</ele>
        <time>2018-09-12T06:29:28Z</time>
      </trkpt>
      <trkpt lat="44.7689" lon="6.98661">
        <ele>1723.78</ele>
        <time>2018-09-12T06:29:44Z</time>
      </trkpt>
      <trkpt lat="44.76898" lon="6.98664">
        <ele>1726.18</ele>
        <time>2018-09-12T06:31:30Z</time>
      </trkpt>
      <trkpt lat="44.76907" lon="6.98662">
        <ele>1728.11</ele>
        <time>2018-09-12T06:31:44Z</time>
      </trkpt>
      <trkpt lat="44.76912" lon="6.98649">
        <ele>1728.11</ele>
        <time>2018-09-12T06:31:55Z</time>
      </trkpt>
      <trkpt lat="44.76916" lon="6.98636">
        <ele>1728.59</ele>
        <time>2018-09-12T06:32:06Z</time>
      </trkpt>
      <trkpt lat="44.76923" lon="6.98627">
        <ele>1730.03</ele>
        <time>2018-09-12T06:32:18Z</time>
      </trkpt>
      <trkpt lat="44.7693" lon="6.98616">
        <ele>1730.51</ele>
        <time>2018-09-12T06:32:30Z</time>
      </trkpt>
      <trkpt lat="44.76936" lon="6.98605">
        <ele>1732.43</ele>
        <time>2018-09-12T06:32:43Z</time>
      </trkpt>
      <trkpt lat="44.76945" lon="6.98599">
        <ele>1733.88</ele>
        <time>2018-09-12T06:32:59Z</time>
      </trkpt>
      <trkpt lat="44.76955" lon="6.98591">
        <ele>1736.28</ele>
        <time>2018-09-12T06:33:17Z</time>
      </trkpt>
      <trkpt lat="44.76962" lon="6.98579">
        <ele>1738.68</ele>
        <time>2018-09-12T06:33:33Z</time>
      </trkpt>
      <trkpt lat="44.76969" lon="6.98568">
        <ele>1740.6</ele>
        <time>2018-09-12T06:33:48Z</time>
      </trkpt>
      <trkpt lat="44.76978" lon="6.98562">
        <ele>1742.53</ele>
        <time>2018-09-12T06:34:06Z</time>
      </trkpt>
      <trkpt lat="44.76989" lon="6.98558">
        <ele>1744.93</ele>
        <time>2018-09-12T06:34:27Z</time>
      </trkpt>
      <trkpt lat="44.76995" lon="6.98561">
        <ele>1746.85</ele>
        <time>2018-09-12T06:34:46Z</time>
      </trkpt>
      <trkpt lat="44.77001" lon="6.98549">
        <ele>1750.22</ele>
        <time>2018-09-12T06:35:07Z</time>
      </trkpt>
      <trkpt lat="44.77011" lon="6.9854">
        <ele>1754.06</ele>
        <time>2018-09-12T06:35:30Z</time>
      </trkpt>
      <trkpt lat="44.77022" lon="6.98535">
        <ele>1755.02</ele>
        <time>2018-09-12T06:35:45Z</time>
      </trkpt>
      <trkpt lat="44.77031" lon="6.98533">
        <ele>1756.95</ele>
        <time>2018-09-12T06:36:02Z</time>
      </trkpt>
      <trkpt lat="44.77038" lon="6.98542">
        <ele>1760.79</ele>
        <time>2018-09-12T06:36:29Z</time>
      </trkpt>
      <trkpt lat="44.77046" lon="6.98533">
        <ele>1763.2</ele>
        <time>2018-09-12T06:36:48Z</time>
      </trkpt>
      <trkpt lat="44.7705" lon="6.98522">
        <ele>1764.16</ele>
        <time>2018-09-12T06:37:10Z</time>
      </trkpt>
      <trkpt lat="44.77054" lon="6.98507">
        <ele>1765.6</ele>
        <time>2018-09-12T06:37:25Z</time>
      </trkpt>
      <trkpt lat="44.77055" lon="6.98491">
        <ele>1767.04</ele>
        <time>2018-09-12T06:37:42Z</time>
      </trkpt>
      <trkpt lat="44.77061" lon="6.9848">
        <ele>1768.96</ele>
        <time>2018-09-12T06:38:06Z</time>
      </trkpt>
      <trkpt lat="44.77066" lon="6.98468">
        <ele>1771.37</ele>
        <time>2018-09-12T06:38:24Z</time>
      </trkpt>
      <trkpt lat="44.77071" lon="6.98456">
        <ele>1772.33</ele>
        <time>2018-09-12T06:38:41Z</time>
      </trkpt>
      <trkpt lat="44.77082" lon="6.98453">
        <ele>1774.73</ele>
        <time>2018-09-12T06:38:58Z</time>
      </trkpt>
      <trkpt lat="44.77091" lon="6.98446">
        <ele>1776.65</ele>
        <time>2018-09-12T06:39:12Z</time>
      </trkpt>
      <trkpt lat="44.771" lon="6.9844">
        <ele>1777.61</ele>
        <time>2018-09-12T06:39:28Z</time>
      </trkpt>
      <trkpt lat="44.77108" lon="6.9843">
        <ele>1779.54</ele>
        <time>2018-09-12T06:39:46Z</time>
      </trkpt>
      <trkpt lat="44.77114" lon="6.98438">
        <ele>1783.38</ele>
        <time>2018-09-12T06:40:10Z</time>
      </trkpt>
      <trkpt lat="44.77122" lon="6.98429">
        <ele>1786.27</ele>
        <time>2018-09-12T06:40:34Z</time>
      </trkpt>
      <trkpt lat="44.77129" lon="6.98428">
        <ele>1788.67</ele>
        <time>2018-09-12T06:40:53Z</time>
      </trkpt>
      <trkpt lat="44.77136" lon="6.98417">
        <ele>1790.59</ele>
        <time>2018-09-12T06:41:14Z</time>
      </trkpt>
      <trkpt lat="44.77144" lon="6.98406">
        <ele>1791.07</ele>
        <time>2018-09-12T06:41:30Z</time>
      </trkpt>
      <trkpt lat="44.77153" lon="6.98397">
        <ele>1792.03</ele>
        <time>2018-09-12T06:41:43Z</time>
      </trkpt>
      <trkpt lat="44.77162" lon="6.98389">
        <ele>1792.52</ele>
        <time>2018-09-12T06:41:57Z</time>
      </trkpt>
      <trkpt lat="44.7717" lon="6.98397">
        <ele>1795.88</ele>
        <time>2018-09-12T06:42:21Z</time>
      </trkpt>
      <trkpt lat="44.77174" lon="6.98408">
        <ele>1799.24</ele>
        <time>2018-09-12T06:42:43Z</time>
      </trkpt>
      <trkpt lat="44.77176" lon="6.98417">
        <ele>1800.21</ele>
        <time>2018-09-12T06:43:03Z</time>
      </trkpt>
      <trkpt lat="44.77181" lon="6.98423">
        <ele>1803.57</ele>
        <time>2018-09-12T06:43:21Z</time>
      </trkpt>
      <trkpt lat="44.77185" lon="6.98436">
        <ele>1805.97</ele>
        <time>2018-09-12T06:43:44Z</time>
      </trkpt>
      <trkpt lat="44.77195" lon="6.98433">
        <ele>1807.9</ele>
        <time>2018-09-12T06:44:03Z</time>
      </trkpt>
      <trkpt lat="44.77206" lon="6.98436">
        <ele>1810.3</ele>
        <time>2018-09-12T06:44:24Z</time>
      </trkpt>
      <trkpt lat="44.77213" lon="6.98426">
        <ele>1811.74</ele>
        <time>2018-09-12T06:44:40Z</time>
      </trkpt>
      <trkpt lat="44.77221" lon="6.98433">
        <ele>1815.59</ele>
        <time>2018-09-12T06:45:01Z</time>
      </trkpt>
      <trkpt lat="44.77231" lon="6.9844">
        <ele>1818.47</ele>
        <time>2018-09-12T06:45:23Z</time>
      </trkpt>
      <trkpt lat="44.77242" lon="6.98445">
        <ele>1821.84</ele>
        <time>2018-09-12T06:45:47Z</time>
      </trkpt>
      <trkpt lat="44.7725" lon="6.98452">
        <ele>1825.2</ele>
        <time>2018-09-12T06:46:05Z</time>
      </trkpt>
      <trkpt lat="44.77257" lon="6.98444">
        <ele>1827.12</ele>
        <time>2018-09-12T06:46:24Z</time>
      </trkpt>
      <trkpt lat="44.77267" lon="6.98441">
        <ele>1829.53</ele>
        <time>2018-09-12T06:46:44Z</time>
      </trkpt>
      <trkpt lat="44.77277" lon="6.98446">
        <ele>1831.93</ele>
        <time>2018-09-12T06:47:06Z</time>
      </trkpt>
      <trkpt lat="44.77282" lon="6.98434">
        <ele>1833.37</ele>
        <time>2018-09-12T06:47:23Z</time>
      </trkpt>
      <trkpt lat="44.77291" lon="6.98427">
        <ele>1836.26</ele>
        <time>2018-09-12T06:47:40Z</time>
      </trkpt>
      <trkpt lat="44.77301" lon="6.98423">
        <ele>1838.66</ele>
        <time>2018-09-12T06:48:00Z</time>
      </trkpt>
      <trkpt lat="44.77309" lon="6.98429">
        <ele>1841.06</ele>
        <time>2018-09-12T06:48:17Z</time>
      </trkpt>
      <trkpt lat="44.77315" lon="6.98441">
        <ele>1842.98</ele>
        <time>2018-09-12T06:48:35Z</time>
      </trkpt>
      <trkpt lat="44.77325" lon="6.98446">
        <ele>1846.35</ele>
        <time>2018-09-12T06:49:00Z</time>
      </trkpt>
      <trkpt lat="44.77333" lon="6.98447">
        <ele>1849.71</ele>
        <time>2018-09-12T06:49:25Z</time>
      </trkpt>
      <trkpt lat="44.7734" lon="6.98451">
        <ele>1854.04</ele>
        <time>2018-09-12T06:49:58Z</time>
      </trkpt>
      <trkpt lat="44.77345" lon="6.98456">
        <ele>1856.44</ele>
        <time>2018-09-12T06:50:21Z</time>
      </trkpt>
      <trkpt lat="44.77348" lon="6.98468">
        <ele>1857.89</ele>
        <time>2018-09-12T06:50:38Z</time>
      </trkpt>
      <trkpt lat="44.77348" lon="6.98484">
        <ele>1859.81</ele>
        <time>2018-09-12T06:50:58Z</time>
      </trkpt>
      <trkpt lat="44.77346" lon="6.985">
        <ele>1861.73</ele>
        <time>2018-09-12T06:51:17Z</time>
      </trkpt>
      <trkpt lat="44.77354" lon="6.98504">
        <ele>1865.09</ele>
        <time>2018-09-12T06:51:40Z</time>
      </trkpt>
      <trkpt lat="44.77353" lon="6.98518">
        <ele>1867.5</ele>
        <time>2018-09-12T06:52:00Z</time>
      </trkpt>
      <trkpt lat="44.7736" lon="6.98531">
        <ele>1871.34</ele>
        <time>2018-09-12T06:52:24Z</time>
      </trkpt>
      <trkpt lat="44.77364" lon="6.98548">
        <ele>1874.71</ele>
        <time>2018-09-12T06:52:49Z</time>
      </trkpt>
      <trkpt lat="44.77374" lon="6.98549">
        <ele>1877.59</ele>
        <time>2018-09-12T06:53:10Z</time>
      </trkpt>
      <trkpt lat="44.77383" lon="6.98558">
        <ele>1880</ele>
        <time>2018-09-12T06:53:32Z</time>
      </trkpt>
      <trkpt lat="44.77387" lon="6.98568">
        <ele>1883.36</ele>
        <time>2018-09-12T06:53:58Z</time>
      </trkpt>
      <trkpt lat="44.77385" lon="6.98581">
        <ele>1885.76</ele>
        <time>2018-09-12T06:54:17Z</time>
      </trkpt>
      <trkpt lat="44.77389" lon="6.98595">
        <ele>1888.65</ele>
        <time>2018-09-12T06:54:41Z</time>
      </trkpt>
      <trkpt lat="44.77384" lon="6.98608">
        <ele>1892.49</ele>
        <time>2018-09-12T06:55:04Z</time>
      </trkpt>
      <trkpt lat="44.77377" lon="6.98623">
        <ele>1894.9</ele>
        <time>2018-09-12T06:55:25Z</time>
      </trkpt>
      <trkpt lat="44.77369" lon="6.9863">
        <ele>1897.3</ele>
        <time>2018-09-12T06:55:48Z</time>
      </trkpt>
      <trkpt lat="44.7736" lon="6.98646">
        <ele>1899.22</ele>
        <time>2018-09-12T06:56:11Z</time>
      </trkpt>
      <trkpt lat="44.77357" lon="6.98667">
        <ele>1903.55</ele>
        <time>2018-09-12T06:56:50Z</time>
      </trkpt>
      <trkpt lat="44.7736" lon="6.98683">
        <ele>1913.64</ele>
        <time>2018-09-12T06:58:36Z</time>
      </trkpt>
      <trkpt lat="44.77351" lon="6.98708">
        <ele>1917.01</ele>
        <time>2018-09-12T06:59:23Z</time>
      </trkpt>
      <trkpt lat="44.77366" lon="6.98714">
        <ele>1919.89</ele>
        <time>2018-09-12T06:59:51Z</time>
      </trkpt>
      <trkpt lat="44.77377" lon="6.98737">
        <ele>1925.66</ele>
        <time>2018-09-12T07:00:39Z</time>
      </trkpt>
      <trkpt lat="44.77396" lon="6.98776">
        <ele>1935.27</ele>
        <time>2018-09-12T07:02:03Z</time>
      </trkpt>
      <trkpt lat="44.77379" lon="6.98786">
        <ele>1940.56</ele>
        <time>2018-09-12T07:02:44Z</time>
      </trkpt>
      <trkpt lat="44.7737" lon="6.98809">
        <ele>1946.81</ele>
        <time>2018-09-12T07:03:24Z</time>
      </trkpt>
      <trkpt lat="44.77379" lon="6.98826">
        <ele>1953.54</ele>
        <time>2018-09-12T07:04:12Z</time>
      </trkpt>
      <trkpt lat="44.77367" lon="6.98844">
        <ele>1955.94</ele>
        <time>2018-09-12T07:04:41Z</time>
      </trkpt>
      <trkpt lat="44.77371" lon="6.98854">
        <ele>1958.34</ele>
        <time>2018-09-12T07:05:04Z</time>
      </trkpt>
      <trkpt lat="44.77379" lon="6.98857">
        <ele>1961.71</ele>
        <time>2018-09-12T07:05:28Z</time>
      </trkpt>
      <trkpt lat="44.7737" lon="6.98884">
        <ele>1965.55</ele>
        <time>2018-09-12T07:06:01Z</time>
      </trkpt>
      <trkpt lat="44.77383" lon="6.98894">
        <ele>1970.84</ele>
        <time>2018-09-12T07:06:37Z</time>
      </trkpt>
      <trkpt lat="44.77397" lon="6.98927">
        <ele>1979.01</ele>
        <time>2018-09-12T07:07:49Z</time>
      </trkpt>
      <trkpt lat="44.77399" lon="6.98944">
        <ele>1983.34</ele>
        <time>2018-09-12T07:08:24Z</time>
      </trkpt>
      <trkpt lat="44.77401" lon="6.98975">
        <ele>1988.14</ele>
        <time>2018-09-12T07:09:09Z</time>
      </trkpt>
      <trkpt lat="44.77411" lon="6.98993">
        <ele>1992.47</ele>
        <time>2018-09-12T07:09:37Z</time>
      </trkpt>
      <trkpt lat="44.77422" lon="6.99013">
        <ele>1995.35</ele>
        <time>2018-09-12T07:10:02Z</time>
      </trkpt>
      <trkpt lat="44.77442" lon="6.99043">
        <ele>2002.08</ele>
        <time>2018-09-12T07:10:56Z</time>
      </trkpt>
      <trkpt lat="44.77445" lon="6.99068">
        <ele>2007.37</ele>
        <time>2018-09-12T07:11:31Z</time>
      </trkpt>
      <trkpt lat="44.77459" lon="6.99069">
        <ele>2010.73</ele>
        <time>2018-09-12T07:11:59Z</time>
      </trkpt>
      <trkpt lat="44.77481" lon="6.99081">
        <ele>2018.43</ele>
        <time>2018-09-12T07:12:49Z</time>
      </trkpt>
      <trkpt lat="44.77481" lon="6.99099">
        <ele>2022.27</ele>
        <time>2018-09-12T07:13:22Z</time>
      </trkpt>
      <trkpt lat="44.77498" lon="6.99106">
        <ele>2027.56</ele>
        <time>2018-09-12T07:13:59Z</time>
      </trkpt>
      <trkpt lat="44.77511" lon="6.99131">
        <ele>2032.36</ele>
        <time>2018-09-12T07:14:34Z</time>
      </trkpt>
      <trkpt lat="44.77521" lon="6.9914">
        <ele>2034.77</ele>
        <time>2018-09-12T07:14:55Z</time>
      </trkpt>
      <trkpt lat="44.77527" lon="6.99146">
        <ele>2038.13</ele>
        <time>2018-09-12T07:15:22Z</time>
      </trkpt>
      <trkpt lat="44.77548" lon="6.99155">
        <ele>2043.9</ele>
        <time>2018-09-12T07:16:06Z</time>
      </trkpt>
      <trkpt lat="44.7755" lon="6.9915">
        <ele>2046.78</ele>
        <time>2018-09-12T07:16:28Z</time>
      </trkpt>
      <trkpt lat="44.7756" lon="6.99139">
        <ele>2053.51</ele>
        <time>2018-09-12T07:17:12Z</time>
      </trkpt>
      <trkpt lat="44.77567" lon="6.99123">
        <ele>2058.8</ele>
        <time>2018-09-12T07:17:51Z</time>
      </trkpt>
      <trkpt lat="44.77575" lon="6.99102">
        <ele>2063.61</ele>
        <time>2018-09-12T07:18:28Z</time>
      </trkpt>
      <trkpt lat="44.77591" lon="6.99094">
        <ele>2069.38</ele>
        <time>2018-09-12T07:19:08Z</time>
      </trkpt>
      <trkpt lat="44.77598" lon="6.99076">
        <ele>2073.22</ele>
        <time>2018-09-12T07:19:43Z</time>
      </trkpt>
      <trkpt lat="44.77606" lon="6.99061">
        <ele>2075.62</ele>
        <time>2018-09-12T07:20:06Z</time>
      </trkpt>
      <trkpt lat="44.77628" lon="6.99055">
        <ele>2078.51</ele>
        <time>2018-09-12T07:20:37Z</time>
      </trkpt>
      <trkpt lat="44.77636" lon="6.99036">
        <ele>2081.39</ele>
        <time>2018-09-12T07:21:02Z</time>
      </trkpt>
      <trkpt lat="44.77661" lon="6.9904">
        <ele>2086.2</ele>
        <time>2018-09-12T07:21:39Z</time>
      </trkpt>
      <trkpt lat="44.77662" lon="6.99064">
        <ele>2090.04</ele>
        <time>2018-09-12T07:22:12Z</time>
      </trkpt>
      <trkpt lat="44.7768" lon="6.99076">
        <ele>2095.33</ele>
        <time>2018-09-12T07:23:07Z</time>
      </trkpt>
      <trkpt lat="44.77704" lon="6.99073">
        <ele>2099.66</ele>
        <time>2018-09-12T07:23:45Z</time>
      </trkpt>
      <trkpt lat="44.77715" lon="6.99079">
        <ele>2103.5</ele>
        <time>2018-09-12T07:24:11Z</time>
      </trkpt>
      <trkpt lat="44.77728" lon="6.99072">
        <ele>2106.39</ele>
        <time>2018-09-12T07:24:35Z</time>
      </trkpt>
      <trkpt lat="44.77745" lon="6.99065">
        <ele>2108.31</ele>
        <time>2018-09-12T07:25:00Z</time>
      </trkpt>
      <trkpt lat="44.77761" lon="6.99061">
        <ele>2110.23</ele>
        <time>2018-09-12T07:25:33Z</time>
      </trkpt>
      <trkpt lat="44.77761" lon="6.99058">
        <ele>2110.71</ele>
        <time>2018-09-12T07:30:06Z</time>
      </trkpt>
      <trkpt lat="44.77765" lon="6.99052">
        <ele>2111.67</ele>
        <time>2018-09-12T07:31:45Z</time>
      </trkpt>
      <trkpt lat="44.77773" lon="6.99042">
        <ele>2112.63</ele>
        <time>2018-09-12T07:32:00Z</time>
      </trkpt>
      <trkpt lat="44.77787" lon="6.99028">
        <ele>2112.63</ele>
        <time>2018-09-12T07:32:21Z</time>
      </trkpt>
      <trkpt lat="44.77798" lon="6.99018">
        <ele>2113.12</ele>
        <time>2018-09-12T07:32:38Z</time>
      </trkpt>
      <trkpt lat="44.77809" lon="6.99002">
        <ele>2113.6</ele>
        <time>2018-09-12T07:32:55Z</time>
      </trkpt>
      <trkpt lat="44.77823" lon="6.98991">
        <ele>2116.48</ele>
        <time>2018-09-12T07:33:19Z</time>
      </trkpt>
      <trkpt lat="44.77835" lon="6.98989">
        <ele>2119.36</ele>
        <time>2018-09-12T07:33:41Z</time>
      </trkpt>
      <trkpt lat="44.77846" lon="6.98987">
        <ele>2123.69</ele>
        <time>2018-09-12T07:34:10Z</time>
      </trkpt>
      <trkpt lat="44.77857" lon="6.98984">
        <ele>2128.02</ele>
        <time>2018-09-12T07:34:38Z</time>
      </trkpt>
      <trkpt lat="44.77865" lon="6.98985">
        <ele>2132.82</ele>
        <time>2018-09-12T07:35:18Z</time>
      </trkpt>
      <trkpt lat="44.77869" lon="6.98994">
        <ele>2137.63</ele>
        <time>2018-09-12T07:35:49Z</time>
      </trkpt>
      <trkpt lat="44.77874" lon="6.99003">
        <ele>2141.47</ele>
        <time>2018-09-12T07:36:22Z</time>
      </trkpt>
      <trkpt lat="44.77888" lon="6.99002">
        <ele>2145.8</ele>
        <time>2018-09-12T07:36:55Z</time>
      </trkpt>
      <trkpt lat="44.77896" lon="6.98994">
        <ele>2147.72</ele>
        <time>2018-09-12T07:37:18Z</time>
      </trkpt>
      <trkpt lat="44.77902" lon="6.99003">
        <ele>2150.61</ele>
        <time>2018-09-12T07:37:40Z</time>
      </trkpt>
      <trkpt lat="44.77904" lon="6.99013">
        <ele>2155.41</ele>
        <time>2018-09-12T07:38:11Z</time>
      </trkpt>
      <trkpt lat="44.77908" lon="6.99028">
        <ele>2159.74</ele>
        <time>2018-09-12T07:38:44Z</time>
      </trkpt>
      <trkpt lat="44.77916" lon="6.99032">
        <ele>2162.62</ele>
        <time>2018-09-12T07:39:16Z</time>
      </trkpt>
      <trkpt lat="44.77916" lon="6.99044">
        <ele>2166.95</ele>
        <time>2018-09-12T07:39:42Z</time>
      </trkpt>
      <trkpt lat="44.77917" lon="6.99055">
        <ele>2169.35</ele>
        <time>2018-09-12T07:40:01Z</time>
      </trkpt>
      <trkpt lat="44.77917" lon="6.99068">
        <ele>2171.76</ele>
        <time>2018-09-12T07:40:21Z</time>
      </trkpt>
      <trkpt lat="44.7792" lon="6.99077">
        <ele>2174.64</ele>
        <time>2018-09-12T07:40:52Z</time>
      </trkpt>
      <trkpt lat="44.77928" lon="6.9908">
        <ele>2178</ele>
        <time>2018-09-12T07:41:23Z</time>
      </trkpt>
      <trkpt lat="44.77936" lon="6.99084">
        <ele>2181.85</ele>
        <time>2018-09-12T07:41:47Z</time>
      </trkpt>
      <trkpt lat="44.77946" lon="6.9909">
        <ele>2185.21</ele>
        <time>2018-09-12T07:42:22Z</time>
      </trkpt>
      <trkpt lat="44.77961" lon="6.99093">
        <ele>2190.02</ele>
        <time>2018-09-12T07:42:59Z</time>
      </trkpt>
      <trkpt lat="44.77971" lon="6.99085">
        <ele>2194.35</ele>
        <time>2018-09-12T07:43:31Z</time>
      </trkpt>
      <trkpt lat="44.77979" lon="6.99075">
        <ele>2196.27</ele>
        <time>2018-09-12T07:43:51Z</time>
      </trkpt>
      <trkpt lat="44.77986" lon="6.99067">
        <ele>2198.19</ele>
        <time>2018-09-12T07:44:11Z</time>
      </trkpt>
      <trkpt lat="44.77993" lon="6.9906">
        <ele>2201.56</ele>
        <time>2018-09-12T07:44:37Z</time>
      </trkpt>
      <trkpt lat="44.77999" lon="6.99067">
        <ele>2205.88</ele>
        <time>2018-09-12T07:45:13Z</time>
      </trkpt>
      <trkpt lat="44.78003" lon="6.99054">
        <ele>2206.84</ele>
        <time>2018-09-12T07:45:31Z</time>
      </trkpt>
      <trkpt lat="44.78006" lon="6.99068">
        <ele>2211.17</ele>
        <time>2018-09-12T07:45:58Z</time>
      </trkpt>
      <trkpt lat="44.78003" lon="6.99089">
        <ele>2213.57</ele>
        <time>2018-09-12T07:46:21Z</time>
      </trkpt>
      <trkpt lat="44.78002" lon="6.99103">
        <ele>2215.01</ele>
        <time>2018-09-12T07:46:41Z</time>
      </trkpt>
      <trkpt lat="44.78008" lon="6.99109">
        <ele>2218.86</ele>
        <time>2018-09-12T07:47:03Z</time>
      </trkpt>
      <trkpt lat="44.78018" lon="6.99098">
        <ele>2222.22</ele>
        <time>2018-09-12T07:47:43Z</time>
      </trkpt>
      <trkpt lat="44.78022" lon="6.99108">
        <ele>2226.07</ele>
        <time>2018-09-12T07:48:09Z</time>
      </trkpt>
      <trkpt lat="44.78028" lon="6.99096">
        <ele>2228.47</ele>
        <time>2018-09-12T07:48:30Z</time>
      </trkpt>
      <trkpt lat="44.78033" lon="6.9909">
        <ele>2231.36</ele>
        <time>2018-09-12T07:48:49Z</time>
      </trkpt>
      <trkpt lat="44.78041" lon="6.99076">
        <ele>2234.72</ele>
        <time>2018-09-12T07:49:18Z</time>
      </trkpt>
      <trkpt lat="44.78055" lon="6.99069">
        <ele>2239.53</ele>
        <time>2018-09-12T07:49:48Z</time>
      </trkpt>
      <trkpt lat="44.7806" lon="6.99083">
        <ele>2241.45</ele>
        <time>2018-09-12T07:50:10Z</time>
      </trkpt>
      <trkpt lat="44.78059" lon="6.99097">
        <ele>2244.33</ele>
        <time>2018-09-12T07:50:33Z</time>
      </trkpt>
      <trkpt lat="44.7806" lon="6.99111">
        <ele>2246.74</ele>
        <time>2018-09-12T07:50:49Z</time>
      </trkpt>
      <trkpt lat="44.78056" lon="6.99126">
        <ele>2247.22</ele>
        <time>2018-09-12T07:51:07Z</time>
      </trkpt>
      <trkpt lat="44.78064" lon="6.99129">
        <ele>2250.1</ele>
        <time>2018-09-12T07:51:26Z</time>
      </trkpt>
      <trkpt lat="44.78075" lon="6.99119">
        <ele>2252.03</ele>
        <time>2018-09-12T07:51:46Z</time>
      </trkpt>
      <trkpt lat="44.78081" lon="6.99106">
        <ele>2253.47</ele>
        <time>2018-09-12T07:52:06Z</time>
      </trkpt>
      <trkpt lat="44.78094" lon="6.99101">
        <ele>2257.79</ele>
        <time>2018-09-12T07:52:36Z</time>
      </trkpt>
      <trkpt lat="44.78105" lon="6.99097">
        <ele>2261.64</ele>
        <time>2018-09-12T07:53:02Z</time>
      </trkpt>
      <trkpt lat="44.78116" lon="6.99096">
        <ele>2265.96</ele>
        <time>2018-09-12T07:53:31Z</time>
      </trkpt>
      <trkpt lat="44.78123" lon="6.9909">
        <ele>2269.81</ele>
        <time>2018-09-12T07:54:00Z</time>
      </trkpt>
      <trkpt lat="44.78129" lon="6.9908">
        <ele>2272.21</ele>
        <time>2018-09-12T07:54:20Z</time>
      </trkpt>
      <trkpt lat="44.78137" lon="6.9908">
        <ele>2275.58</ele>
        <time>2018-09-12T07:54:41Z</time>
      </trkpt>
      <trkpt lat="44.78144" lon="6.99073">
        <ele>2278.46</ele>
        <time>2018-09-12T07:55:00Z</time>
      </trkpt>
      <trkpt lat="44.78149" lon="6.99063">
        <ele>2280.87</ele>
        <time>2018-09-12T07:55:19Z</time>
      </trkpt>
      <trkpt lat="44.78155" lon="6.9905">
        <ele>2283.27</ele>
        <time>2018-09-12T07:55:38Z</time>
      </trkpt>
      <trkpt lat="44.78164" lon="6.99041">
        <ele>2284.23</ele>
        <time>2018-09-12T07:55:56Z</time>
      </trkpt>
      <trkpt lat="44.78172" lon="6.99049">
        <ele>2286.63</ele>
        <time>2018-09-12T07:56:18Z</time>
      </trkpt>
      <trkpt lat="44.7817" lon="6.99068">
        <ele>2287.59</ele>
        <time>2018-09-12T07:56:47Z</time>
      </trkpt>
      <trkpt lat="44.78169" lon="6.99082">
        <ele>2289.52</ele>
        <time>2018-09-12T07:57:02Z</time>
      </trkpt>
      <trkpt lat="44.78172" lon="6.99093">
        <ele>2290.48</ele>
        <time>2018-09-12T07:57:19Z</time>
      </trkpt>
      <trkpt lat="44.7818" lon="6.99083">
        <ele>2293.84</ele>
        <time>2018-09-12T07:57:39Z</time>
      </trkpt>
      <trkpt lat="44.78187" lon="6.9907">
        <ele>2298.17</ele>
        <time>2018-09-12T07:58:06Z</time>
      </trkpt>
      <trkpt lat="44.78195" lon="6.99059">
        <ele>2300.09</ele>
        <time>2018-09-12T07:58:26Z</time>
      </trkpt>
      <trkpt lat="44.78204" lon="6.9905">
        <ele>2302.49</ele>
        <time>2018-09-12T07:58:46Z</time>
      </trkpt>
      <trkpt lat="44.7821" lon="6.99038">
        <ele>2306.34</ele>
        <time>2018-09-12T07:59:16Z</time>
      </trkpt>
      <trkpt lat="44.78216" lon="6.99054">
        <ele>2310.19</ele>
        <time>2018-09-12T07:59:45Z</time>
      </trkpt>
      <trkpt lat="44.78221" lon="6.99066">
        <ele>2311.15</ele>
        <time>2018-09-12T08:00:00Z</time>
      </trkpt>
      <trkpt lat="44.78223" lon="6.99078">
        <ele>2313.07</ele>
        <time>2018-09-12T08:00:16Z</time>
      </trkpt>
      <trkpt lat="44.78224" lon="6.99093">
        <ele>2314.99</ele>
        <time>2018-09-12T08:00:30Z</time>
      </trkpt>
      <trkpt lat="44.78229" lon="6.99103">
        <ele>2316.91</ele>
        <time>2018-09-12T08:00:45Z</time>
      </trkpt>
      <trkpt lat="44.78238" lon="6.99097">
        <ele>2320.28</ele>
        <time>2018-09-12T08:01:06Z</time>
      </trkpt>
      <trkpt lat="44.78241" lon="6.99086">
        <ele>2321.24</ele>
        <time>2018-09-12T08:01:22Z</time>
      </trkpt>
      <trkpt lat="44.78248" lon="6.9908">
        <ele>2323.64</ele>
        <time>2018-09-12T08:01:40Z</time>
      </trkpt>
      <trkpt lat="44.78254" lon="6.99091">
        <ele>2326.53</ele>
        <time>2018-09-12T08:01:58Z</time>
      </trkpt>
      <trkpt lat="44.78261" lon="6.99101">
        <ele>2329.41</ele>
        <time>2018-09-12T08:02:19Z</time>
      </trkpt>
      <trkpt lat="44.78267" lon="6.99107">
        <ele>2331.81</ele>
        <time>2018-09-12T08:02:41Z</time>
      </trkpt>
      <trkpt lat="44.78273" lon="6.99093">
        <ele>2334.22</ele>
        <time>2018-09-12T08:02:59Z</time>
      </trkpt>
      <trkpt lat="44.7828" lon="6.99082">
        <ele>2337.1</ele>
        <time>2018-09-12T08:03:18Z</time>
      </trkpt>
      <trkpt lat="44.78282" lon="6.9907">
        <ele>2339.02</ele>
        <time>2018-09-12T08:03:33Z</time>
      </trkpt>
      <trkpt lat="44.78288" lon="6.99056">
        <ele>2340.47</ele>
        <time>2018-09-12T08:03:49Z</time>
      </trkpt>
      <trkpt lat="44.78291" lon="6.99042">
        <ele>2341.43</ele>
        <time>2018-09-12T08:04:05Z</time>
      </trkpt>
      <trkpt lat="44.78294" lon="6.99028">
        <ele>2343.83</ele>
        <time>2018-09-12T08:04:27Z</time>
      </trkpt>
      <trkpt lat="44.78296" lon="6.99012">
        <ele>2345.27</ele>
        <time>2018-09-12T08:04:54Z</time>
      </trkpt>
      <trkpt lat="44.78296" lon="6.98996">
        <ele>2346.72</ele>
        <time>2018-09-12T08:05:21Z</time>
      </trkpt>
      <trkpt lat="44.783" lon="6.98985">
        <ele>2347.68</ele>
        <time>2018-09-12T08:05:37Z</time>
      </trkpt>
      <trkpt lat="44.78306" lon="6.98975">
        <ele>2350.08</ele>
        <time>2018-09-12T08:05:59Z</time>
      </trkpt>
      <trkpt lat="44.78316" lon="6.98981">
        <ele>2352.96</ele>
        <time>2018-09-12T08:06:21Z</time>
      </trkpt>
      <trkpt lat="44.78321" lon="6.98969">
        <ele>2356.81</ele>
        <time>2018-09-12T08:06:51Z</time>
      </trkpt>
      <trkpt lat="44.78324" lon="6.98952">
        <ele>2360.65</ele>
        <time>2018-09-12T08:07:18Z</time>
      </trkpt>
      <trkpt lat="44.78323" lon="6.98937">
        <ele>2363.06</ele>
        <time>2018-09-12T08:07:37Z</time>
      </trkpt>
      <trkpt lat="44.78329" lon="6.98925">
        <ele>2366.9</ele>
        <time>2018-09-12T08:07:56Z</time>
      </trkpt>
      <trkpt lat="44.78334" lon="6.98912">
        <ele>2371.23</ele>
        <time>2018-09-12T08:08:22Z</time>
      </trkpt>
      <trkpt lat="44.78335" lon="6.98893">
        <ele>2373.63</ele>
        <time>2018-09-12T08:08:42Z</time>
      </trkpt>
      <trkpt lat="44.78342" lon="6.98883">
        <ele>2376.04</ele>
        <time>2018-09-12T08:09:01Z</time>
      </trkpt>
      <trkpt lat="44.78351" lon="6.98882">
        <ele>2380.36</ele>
        <time>2018-09-12T08:09:31Z</time>
      </trkpt>
      <trkpt lat="44.78355" lon="6.98894">
        <ele>2382.76</ele>
        <time>2018-09-12T08:09:48Z</time>
      </trkpt>
      <trkpt lat="44.78364" lon="6.98899">
        <ele>2385.65</ele>
        <time>2018-09-12T08:10:14Z</time>
      </trkpt>
      <trkpt lat="44.78368" lon="6.98884">
        <ele>2387.09</ele>
        <time>2018-09-12T08:10:29Z</time>
      </trkpt>
      <trkpt lat="44.78371" lon="6.98867">
        <ele>2389.49</ele>
        <time>2018-09-12T08:10:48Z</time>
      </trkpt>
      <trkpt lat="44.78375" lon="6.98852">
        <ele>2391.9</ele>
        <time>2018-09-12T08:11:11Z</time>
      </trkpt>
      <trkpt lat="44.78377" lon="6.98834">
        <ele>2395.26</ele>
        <time>2018-09-12T08:11:32Z</time>
      </trkpt>
      <trkpt lat="44.78379" lon="6.98823">
        <ele>2396.22</ele>
        <time>2018-09-12T08:12:37Z</time>
      </trkpt>
      <trkpt lat="44.78383" lon="6.98806">
        <ele>2397.67</ele>
        <time>2018-09-12T08:12:51Z</time>
      </trkpt>
      <trkpt lat="44.78392" lon="6.98797">
        <ele>2399.11</ele>
        <time>2018-09-12T08:13:08Z</time>
      </trkpt>
      <trkpt lat="44.78397" lon="6.98782">
        <ele>2401.03</ele>
        <time>2018-09-12T08:13:22Z</time>
      </trkpt>
      <trkpt lat="44.784" lon="6.98765">
        <ele>2400.55</ele>
        <time>2018-09-12T08:13:35Z</time>
      </trkpt>
      <trkpt lat="44.78404" lon="6.9875">
        <ele>2400.55</ele>
        <time>2018-09-12T08:13:46Z</time>
      </trkpt>
      <trkpt lat="44.7841" lon="6.98738">
        <ele>2399.11</ele>
        <time>2018-09-12T08:13:57Z</time>
      </trkpt>
      <trkpt lat="44.78418" lon="6.98727">
        <ele>2400.55</ele>
        <time>2018-09-12T08:14:09Z</time>
      </trkpt>
      <trkpt lat="44.78417" lon="6.98713">
        <ele>2402.47</ele>
        <time>2018-09-12T08:14:22Z</time>
      </trkpt>
      <trkpt lat="44.78418" lon="6.98696">
        <ele>2403.43</ele>
        <time>2018-09-12T08:14:33Z</time>
      </trkpt>
      <trkpt lat="44.78423" lon="6.98684">
        <ele>2403.91</ele>
        <time>2018-09-12T08:15:23Z</time>
      </trkpt>
      <trkpt lat="44.78424" lon="6.98668">
        <ele>2405.36</ele>
        <time>2018-09-12T08:15:41Z</time>
      </trkpt>
      <trkpt lat="44.78427" lon="6.98651">
        <ele>2406.32</ele>
        <time>2018-09-12T08:15:53Z</time>
      </trkpt>
      <trkpt lat="44.78432" lon="6.98639">
        <ele>2407.28</ele>
        <time>2018-09-12T08:16:06Z</time>
      </trkpt>
      <trkpt lat="44.78435" lon="6.98626">
        <ele>2408.24</ele>
        <time>2018-09-12T08:16:38Z</time>
      </trkpt>
      <trkpt lat="44.78438" lon="6.9861">
        <ele>2407.76</ele>
        <time>2018-09-12T08:16:50Z</time>
      </trkpt>
      <trkpt lat="44.78442" lon="6.98596">
        <ele>2406.32</ele>
        <time>2018-09-12T08:17:00Z</time>
      </trkpt>
      <trkpt lat="44.78448" lon="6.98583">
        <ele>2405.36</ele>
        <time>2018-09-12T08:17:10Z</time>
      </trkpt>
      <trkpt lat="44.78453" lon="6.98571">
        <ele>2404.88</ele>
        <time>2018-09-12T08:17:20Z</time>
      </trkpt>
      <trkpt lat="44.78459" lon="6.9856">
        <ele>2403.43</ele>
        <time>2018-09-12T08:17:30Z</time>
      </trkpt>
      <trkpt lat="44.78464" lon="6.98546">
        <ele>2402.47</ele>
        <time>2018-09-12T08:17:40Z</time>
      </trkpt>
      <trkpt lat="44.7847" lon="6.98536">
        <ele>2402.47</ele>
        <time>2018-09-12T08:17:52Z</time>
      </trkpt>
      <trkpt lat="44.78478" lon="6.98524">
        <ele>2402.47</ele>
        <time>2018-09-12T08:18:03Z</time>
      </trkpt>
      <trkpt lat="44.78483" lon="6.98513">
        <ele>2401.99</ele>
        <time>2018-09-12T08:18:15Z</time>
      </trkpt>
      <trkpt lat="44.78492" lon="6.98503">
        <ele>2402.47</ele>
        <time>2018-09-12T08:18:27Z</time>
      </trkpt>
      <trkpt lat="44.78499" lon="6.98491">
        <ele>2401.51</ele>
        <time>2018-09-12T08:18:38Z</time>
      </trkpt>
      <trkpt lat="44.78502" lon="6.98478">
        <ele>2399.11</ele>
        <time>2018-09-12T08:18:47Z</time>
      </trkpt>
      <trkpt lat="44.78504" lon="6.98463">
        <ele>2398.63</ele>
        <time>2018-09-12T08:18:57Z</time>
      </trkpt>
      <trkpt lat="44.78512" lon="6.98452">
        <ele>2399.11</ele>
        <time>2018-09-12T08:19:09Z</time>
      </trkpt>
      <trkpt lat="44.78522" lon="6.98447">
        <ele>2400.07</ele>
        <time>2018-09-12T08:19:22Z</time>
      </trkpt>
      <trkpt lat="44.78529" lon="6.98436">
        <ele>2402.95</ele>
        <time>2018-09-12T08:19:38Z</time>
      </trkpt>
      <trkpt lat="44.78534" lon="6.98428">
        <ele>2403.91</ele>
        <time>2018-09-12T08:19:51Z</time>
      </trkpt>
      <trkpt lat="44.78548" lon="6.98425">
        <ele>2404.88</ele>
        <time>2018-09-12T08:20:06Z</time>
      </trkpt>
      <trkpt lat="44.78558" lon="6.98422">
        <ele>2405.84</ele>
        <time>2018-09-12T08:20:18Z</time>
      </trkpt>
      <trkpt lat="44.78569" lon="6.98413">
        <ele>2406.32</ele>
        <time>2018-09-12T08:20:33Z</time>
      </trkpt>
      <trkpt lat="44.7858" lon="6.98414">
        <ele>2407.76</ele>
        <time>2018-09-12T08:20:46Z</time>
      </trkpt>
      <trkpt lat="44.78592" lon="6.98413">
        <ele>2410.16</ele>
        <time>2018-09-12T08:21:06Z</time>
      </trkpt>
      <trkpt lat="44.78604" lon="6.98408">
        <ele>2412.09</ele>
        <time>2018-09-12T08:21:21Z</time>
      </trkpt>
      <trkpt lat="44.78616" lon="6.98401">
        <ele>2413.53</ele>
        <time>2018-09-12T08:21:37Z</time>
      </trkpt>
      <trkpt lat="44.78627" lon="6.98393">
        <ele>2414.49</ele>
        <time>2018-09-12T08:21:49Z</time>
      </trkpt>
      <trkpt lat="44.78633" lon="6.98384">
        <ele>2414.49</ele>
        <time>2018-09-12T08:22:00Z</time>
      </trkpt>
      <trkpt lat="44.78642" lon="6.98377">
        <ele>2415.93</ele>
        <time>2018-09-12T08:22:12Z</time>
      </trkpt>
      <trkpt lat="44.78652" lon="6.98372">
        <ele>2417.85</ele>
        <time>2018-09-12T08:22:24Z</time>
      </trkpt>
      <trkpt lat="44.78662" lon="6.98373">
        <ele>2418.81</ele>
        <time>2018-09-12T08:22:36Z</time>
      </trkpt>
      <trkpt lat="44.78665" lon="6.98383">
        <ele>2421.22</ele>
        <time>2018-09-12T08:22:48Z</time>
      </trkpt>
      <trkpt lat="44.78661" lon="6.98398">
        <ele>2424.58</ele>
        <time>2018-09-12T08:23:07Z</time>
      </trkpt>
      <trkpt lat="44.78666" lon="6.98405">
        <ele>2426.5</ele>
        <time>2018-09-12T08:23:27Z</time>
      </trkpt>
      <trkpt lat="44.78675" lon="6.9841">
        <ele>2428.43</ele>
        <time>2018-09-12T08:23:44Z</time>
      </trkpt>
      <trkpt lat="44.78686" lon="6.9841">
        <ele>2430.83</ele>
        <time>2018-09-12T08:23:59Z</time>
      </trkpt>
      <trkpt lat="44.78695" lon="6.98408">
        <ele>2434.2</ele>
        <time>2018-09-12T08:24:19Z</time>
      </trkpt>
      <trkpt lat="44.78699" lon="6.98398">
        <ele>2437.08</ele>
        <time>2018-09-12T08:24:36Z</time>
      </trkpt>
      <trkpt lat="44.78711" lon="6.98394">
        <ele>2439.48</ele>
        <time>2018-09-12T08:24:56Z</time>
      </trkpt>
      <trkpt lat="44.78718" lon="6.98386">
        <ele>2441.89</ele>
        <time>2018-09-12T08:25:12Z</time>
      </trkpt>
      <trkpt lat="44.78726" lon="6.98378">
        <ele>2444.77</ele>
        <time>2018-09-12T08:25:29Z</time>
      </trkpt>
      <trkpt lat="44.78735" lon="6.98373">
        <ele>2446.21</ele>
        <time>2018-09-12T08:25:44Z</time>
      </trkpt>
      <trkpt lat="44.78738" lon="6.98383">
        <ele>2449.58</ele>
        <time>2018-09-12T08:26:03Z</time>
      </trkpt>
      <trkpt lat="44.78743" lon="6.9839">
        <ele>2451.98</ele>
        <time>2018-09-12T08:26:21Z</time>
      </trkpt>
      <trkpt lat="44.78749" lon="6.98385">
        <ele>2454.86</ele>
        <time>2018-09-12T08:26:38Z</time>
      </trkpt>
      <trkpt lat="44.78755" lon="6.98391">
        <ele>2457.27</ele>
        <time>2018-09-12T08:26:55Z</time>
      </trkpt>
      <trkpt lat="44.78753" lon="6.98405">
        <ele>2460.63</ele>
        <time>2018-09-12T08:27:15Z</time>
      </trkpt>
      <trkpt lat="44.78752" lon="6.98418">
        <ele>2462.55</ele>
        <time>2018-09-12T08:27:31Z</time>
      </trkpt>
      <trkpt lat="44.78761" lon="6.9842">
        <ele>2465.44</ele>
        <time>2018-09-12T08:27:48Z</time>
      </trkpt>
      <trkpt lat="44.78768" lon="6.98417">
        <ele>2467.84</ele>
        <time>2018-09-12T08:28:05Z</time>
      </trkpt>
      <trkpt lat="44.78777" lon="6.98418">
        <ele>2471.21</ele>
        <time>2018-09-12T08:28:27Z</time>
      </trkpt>
      <trkpt lat="44.78787" lon="6.98408">
        <ele>2476.97</ele>
        <time>2018-09-12T08:29:02Z</time>
      </trkpt>
      <trkpt lat="44.78791" lon="6.98395">
        <ele>2479.86</ele>
        <time>2018-09-12T08:29:22Z</time>
      </trkpt>
      <trkpt lat="44.78795" lon="6.98382">
        <ele>2482.26</ele>
        <time>2018-09-12T08:29:36Z</time>
      </trkpt>
      <trkpt lat="44.78801" lon="6.98371">
        <ele>2482.26</ele>
        <time>2018-09-12T08:29:48Z</time>
      </trkpt>
      <trkpt lat="44.78805" lon="6.98358">
        <ele>2484.18</ele>
        <time>2018-09-12T08:30:01Z</time>
      </trkpt>
      <trkpt lat="44.78811" lon="6.98348">
        <ele>2486.59</ele>
        <time>2018-09-12T08:30:16Z</time>
      </trkpt>
      <trkpt lat="44.78818" lon="6.98348">
        <ele>2489.95</ele>
        <time>2018-09-12T08:30:34Z</time>
      </trkpt>
      <trkpt lat="44.78818" lon="6.98361">
        <ele>2492.36</ele>
        <time>2018-09-12T08:30:50Z</time>
      </trkpt>
      <trkpt lat="44.78819" lon="6.98377">
        <ele>2495.72</ele>
        <time>2018-09-12T08:31:08Z</time>
      </trkpt>
      <trkpt lat="44.78827" lon="6.98382">
        <ele>2498.12</ele>
        <time>2018-09-12T08:31:26Z</time>
      </trkpt>
      <trkpt lat="44.78837" lon="6.98385">
        <ele>2499.57</ele>
        <time>2018-09-12T08:31:41Z</time>
      </trkpt>
      <trkpt lat="44.78846" lon="6.98387">
        <ele>2501.49</ele>
        <time>2018-09-12T08:31:57Z</time>
      </trkpt>
      <trkpt lat="44.78852" lon="6.98379">
        <ele>2502.45</ele>
        <time>2018-09-12T08:32:09Z</time>
      </trkpt>
      <trkpt lat="44.78855" lon="6.98368">
        <ele>2502.93</ele>
        <time>2018-09-12T08:32:20Z</time>
      </trkpt>
      <trkpt lat="44.78858" lon="6.98354">
        <ele>2503.89</ele>
        <time>2018-09-12T08:32:31Z</time>
      </trkpt>
      <trkpt lat="44.78861" lon="6.98341">
        <ele>2504.37</ele>
        <time>2018-09-12T08:32:42Z</time>
      </trkpt>
      <trkpt lat="44.78863" lon="6.98328">
        <ele>2505.81</ele>
        <time>2018-09-12T08:32:52Z</time>
      </trkpt>
      <trkpt lat="44.78867" lon="6.98315">
        <ele>2507.74</ele>
        <time>2018-09-12T08:33:03Z</time>
      </trkpt>
      <trkpt lat="44.78871" lon="6.98303">
        <ele>2509.66</ele>
        <time>2018-09-12T08:33:15Z</time>
      </trkpt>
      <trkpt lat="44.78875" lon="6.98289">
        <ele>2511.58</ele>
        <time>2018-09-12T08:33:28Z</time>
      </trkpt>
      <trkpt lat="44.78877" lon="6.98276">
        <ele>2514.47</ele>
        <time>2018-09-12T08:33:41Z</time>
      </trkpt>
      <trkpt lat="44.78881" lon="6.98262">
        <ele>2517.35</ele>
        <time>2018-09-12T08:33:55Z</time>
      </trkpt>
      <trkpt lat="44.7888" lon="6.98247">
        <ele>2518.31</ele>
        <time>2018-09-12T08:34:11Z</time>
      </trkpt>
      <trkpt lat="44.78888" lon="6.98239">
        <ele>2520.71</ele>
        <time>2018-09-12T08:34:25Z</time>
      </trkpt>
      <trkpt lat="44.78893" lon="6.98228">
        <ele>2523.12</ele>
        <time>2018-09-12T08:34:38Z</time>
      </trkpt>
      <trkpt lat="44.78895" lon="6.98216">
        <ele>2523.6</ele>
        <time>2018-09-12T08:34:50Z</time>
      </trkpt>
      <trkpt lat="44.78895" lon="6.98203">
        <ele>2524.56</ele>
        <time>2018-09-12T08:35:00Z</time>
      </trkpt>
      <trkpt lat="44.78898" lon="6.9819">
        <ele>2525.52</ele>
        <time>2018-09-12T08:35:10Z</time>
      </trkpt>
      <trkpt lat="44.78903" lon="6.98178">
        <ele>2526.48</ele>
        <time>2018-09-12T08:35:21Z</time>
      </trkpt>
      <trkpt lat="44.78905" lon="6.98164">
        <ele>2526.96</ele>
        <time>2018-09-12T08:35:31Z</time>
      </trkpt>
      <trkpt lat="44.7891" lon="6.98153">
        <ele>2528.89</ele>
        <time>2018-09-12T08:35:44Z</time>
      </trkpt>
      <trkpt lat="44.78918" lon="6.98144">
        <ele>2532.25</ele>
        <time>2018-09-12T08:35:58Z</time>
      </trkpt>
      <trkpt lat="44.78924" lon="6.98134">
        <ele>2533.69</ele>
        <time>2018-09-12T08:36:09Z</time>
      </trkpt>
      <trkpt lat="44.78927" lon="6.98122">
        <ele>2535.13</ele>
        <time>2018-09-12T08:36:20Z</time>
      </trkpt>
      <trkpt lat="44.78932" lon="6.98108">
        <ele>2535.13</ele>
        <time>2018-09-12T08:36:30Z</time>
      </trkpt>
      <trkpt lat="44.78935" lon="6.98095">
        <ele>2536.58</ele>
        <time>2018-09-12T08:36:42Z</time>
      </trkpt>
      <trkpt lat="44.78941" lon="6.98084">
        <ele>2540.42</ele>
        <time>2018-09-12T08:36:54Z</time>
      </trkpt>
      <trkpt lat="44.78942" lon="6.98072">
        <ele>2541.38</ele>
        <time>2018-09-12T08:37:09Z</time>
      </trkpt>
      <trkpt lat="44.78948" lon="6.9806">
        <ele>2544.27</ele>
        <time>2018-09-12T08:37:27Z</time>
      </trkpt>
      <trkpt lat="44.78952" lon="6.98048">
        <ele>2545.23</ele>
        <time>2018-09-12T08:37:41Z</time>
      </trkpt>
      <trkpt lat="44.78953" lon="6.98045">
        <ele>2547.15</ele>
        <time>2018-09-12T08:39:38Z</time>
      </trkpt>
      <trkpt lat="44.78954" lon="6.98042">
        <ele>2557.24</ele>
        <time>2018-09-12T08:59:06Z</time>
      </trkpt>
      <trkpt lat="44.78956" lon="6.98033">
        <ele>2557.24</ele>
        <time>2018-09-12T09:00:01Z</time>
      </trkpt>
      <trkpt lat="44.78956" lon="6.98021">
        <ele>2556.76</ele>
        <time>2018-09-12T09:00:57Z</time>
      </trkpt>
      <trkpt lat="44.78959" lon="6.98007">
        <ele>2556.28</ele>
        <time>2018-09-12T09:01:07Z</time>
      </trkpt>
      <trkpt lat="44.78962" lon="6.97994">
        <ele>2554.84</ele>
        <time>2018-09-12T09:01:16Z</time>
      </trkpt>
      <trkpt lat="44.78966" lon="6.97982">
        <ele>2554.84</ele>
        <time>2018-09-12T09:01:25Z</time>
      </trkpt>
      <trkpt lat="44.7897" lon="6.97969">
        <ele>2554.84</ele>
        <time>2018-09-12T09:01:34Z</time>
      </trkpt>
      <trkpt lat="44.78972" lon="6.97955">
        <ele>2552.44</ele>
        <time>2018-09-12T09:01:43Z</time>
      </trkpt>
      <trkpt lat="44.78979" lon="6.97945">
        <ele>2553.4</ele>
        <time>2018-09-12T09:01:52Z</time>
      </trkpt>
      <trkpt lat="44.78985" lon="6.97935">
        <ele>2554.36</ele>
        <time>2018-09-12T09:02:03Z</time>
      </trkpt>
      <trkpt lat="44.78988" lon="6.97921">
        <ele>2555.8</ele>
        <time>2018-09-12T09:02:13Z</time>
      </trkpt>
      <trkpt lat="44.78992" lon="6.97911">
        <ele>2557.73</ele>
        <time>2018-09-12T09:02:23Z</time>
      </trkpt>
      <trkpt lat="44.78997" lon="6.97901">
        <ele>2558.21</ele>
        <time>2018-09-12T09:02:34Z</time>
      </trkpt>
      <trkpt lat="44.78999" lon="6.97888">
        <ele>2559.65</ele>
        <time>2018-09-12T09:02:47Z</time>
      </trkpt>
      <trkpt lat="44.79001" lon="6.97875">
        <ele>2560.61</ele>
        <time>2018-09-12T09:02:59Z</time>
      </trkpt>
      <trkpt lat="44.79003" lon="6.97862">
        <ele>2561.57</ele>
        <time>2018-09-12T09:03:09Z</time>
      </trkpt>
      <trkpt lat="44.79006" lon="6.97849">
        <ele>2560.61</ele>
        <time>2018-09-12T09:03:19Z</time>
      </trkpt>
      <trkpt lat="44.79008" lon="6.97837">
        <ele>2561.09</ele>
        <time>2018-09-12T09:03:30Z</time>
      </trkpt>
      <trkpt lat="44.79009" lon="6.97825">
        <ele>2562.53</ele>
        <time>2018-09-12T09:03:41Z</time>
      </trkpt>
      <trkpt lat="44.79012" lon="6.97813">
        <ele>2563.49</ele>
        <time>2018-09-12T09:03:53Z</time>
      </trkpt>
      <trkpt lat="44.79012" lon="6.97801">
        <ele>2564.93</ele>
        <time>2018-09-12T09:04:04Z</time>
      </trkpt>
      <trkpt lat="44.79012" lon="6.97787">
        <ele>2565.42</ele>
        <time>2018-09-12T09:04:18Z</time>
      </trkpt>
      <trkpt lat="44.79011" lon="6.97774">
        <ele>2567.34</ele>
        <time>2018-09-12T09:04:29Z</time>
      </trkpt>
      <trkpt lat="44.7901" lon="6.97761">
        <ele>2566.86</ele>
        <time>2018-09-12T09:04:46Z</time>
      </trkpt>
      <trkpt lat="44.7901" lon="6.97747">
        <ele>2566.86</ele>
        <time>2018-09-12T09:04:56Z</time>
      </trkpt>
      <trkpt lat="44.79011" lon="6.97733">
        <ele>2567.34</ele>
        <time>2018-09-12T09:05:06Z</time>
      </trkpt>
      <trkpt lat="44.79012" lon="6.9772">
        <ele>2567.34</ele>
        <time>2018-09-12T09:05:15Z</time>
      </trkpt>
      <trkpt lat="44.79013" lon="6.97707">
        <ele>2566.38</ele>
        <time>2018-09-12T09:05:24Z</time>
      </trkpt>
      <trkpt lat="44.79016" lon="6.97695">
        <ele>2565.42</ele>
        <time>2018-09-12T09:05:33Z</time>
      </trkpt>
      <trkpt lat="44.79018" lon="6.97683">
        <ele>2564.93</ele>
        <time>2018-09-12T09:05:42Z</time>
      </trkpt>
      <trkpt lat="44.7902" lon="6.97671">
        <ele>2564.45</ele>
        <time>2018-09-12T09:05:51Z</time>
      </trkpt>
      <trkpt lat="44.79025" lon="6.97658">
        <ele>2564.45</ele>
        <time>2018-09-12T09:06:00Z</time>
      </trkpt>
      <trkpt lat="44.79029" lon="6.97647">
        <ele>2562.53</ele>
        <time>2018-09-12T09:06:09Z</time>
      </trkpt>
      <trkpt lat="44.79029" lon="6.97635">
        <ele>2560.13</ele>
        <time>2018-09-12T09:06:18Z</time>
      </trkpt>
      <trkpt lat="44.79028" lon="6.97622">
        <ele>2558.69</ele>
        <time>2018-09-12T09:06:27Z</time>
      </trkpt>
      <trkpt lat="44.79027" lon="6.97608">
        <ele>2558.69</ele>
        <time>2018-09-12T09:06:37Z</time>
      </trkpt>
      <trkpt lat="44.79023" lon="6.97596">
        <ele>2558.69</ele>
        <time>2018-09-12T09:06:46Z</time>
      </trkpt>
      <trkpt lat="44.7902" lon="6.97583">
        <ele>2558.69</ele>
        <time>2018-09-12T09:06:55Z</time>
      </trkpt>
      <trkpt lat="44.7902" lon="6.9757">
        <ele>2558.21</ele>
        <time>2018-09-12T09:07:04Z</time>
      </trkpt>
      <trkpt lat="44.7902" lon="6.97555">
        <ele>2558.69</ele>
        <time>2018-09-12T09:07:14Z</time>
      </trkpt>
      <trkpt lat="44.7902" lon="6.97544">
        <ele>2559.17</ele>
        <time>2018-09-12T09:07:23Z</time>
      </trkpt>
      <trkpt lat="44.79017" lon="6.97531">
        <ele>2560.13</ele>
        <time>2018-09-12T09:07:33Z</time>
      </trkpt>
      <trkpt lat="44.79016" lon="6.97518">
        <ele>2560.13</ele>
        <time>2018-09-12T09:07:43Z</time>
      </trkpt>
      <trkpt lat="44.79017" lon="6.97504">
        <ele>2559.65</ele>
        <time>2018-09-12T09:07:52Z</time>
      </trkpt>
      <trkpt lat="44.79016" lon="6.97492">
        <ele>2561.09</ele>
        <time>2018-09-12T09:08:02Z</time>
      </trkpt>
      <trkpt lat="44.79011" lon="6.97481">
        <ele>2558.69</ele>
        <time>2018-09-12T09:08:11Z</time>
      </trkpt>
      <trkpt lat="44.79011" lon="6.97467">
        <ele>2558.69</ele>
        <time>2018-09-12T09:08:20Z</time>
      </trkpt>
      <trkpt lat="44.79008" lon="6.97454">
        <ele>2559.65</ele>
        <time>2018-09-12T09:08:30Z</time>
      </trkpt>
      <trkpt lat="44.79005" lon="6.97442">
        <ele>2561.09</ele>
        <time>2018-09-12T09:08:40Z</time>
      </trkpt>
      <trkpt lat="44.79" lon="6.9743">
        <ele>2561.09</ele>
        <time>2018-09-12T09:08:52Z</time>
      </trkpt>
      <trkpt lat="44.78997" lon="6.97419">
        <ele>2563.49</ele>
        <time>2018-09-12T09:09:07Z</time>
      </trkpt>
      <trkpt lat="44.78997" lon="6.97406">
        <ele>2564.93</ele>
        <time>2018-09-12T09:09:21Z</time>
      </trkpt>
      <trkpt lat="44.78997" lon="6.97394">
        <ele>2567.34</ele>
        <time>2018-09-12T09:09:35Z</time>
      </trkpt>
      <trkpt lat="44.78996" lon="6.97382">
        <ele>2569.26</ele>
        <time>2018-09-12T09:09:48Z</time>
      </trkpt>
      <trkpt lat="44.78997" lon="6.9737">
        <ele>2571.66</ele>
        <time>2018-09-12T09:10:04Z</time>
      </trkpt>
      <trkpt lat="44.78999" lon="6.97357">
        <ele>2575.03</ele>
        <time>2018-09-12T09:10:19Z</time>
      </trkpt>
      <trkpt lat="44.78998" lon="6.97345">
        <ele>2575.03</ele>
        <time>2018-09-12T09:10:34Z</time>
      </trkpt>
      <trkpt lat="44.78998" lon="6.97332">
        <ele>2577.43</ele>
        <time>2018-09-12T09:10:49Z</time>
      </trkpt>
      <trkpt lat="44.78995" lon="6.97321">
        <ele>2577.43</ele>
        <time>2018-09-12T09:11:04Z</time>
      </trkpt>
      <trkpt lat="44.78995" lon="6.97308">
        <ele>2580.8</ele>
        <time>2018-09-12T09:11:21Z</time>
      </trkpt>
      <trkpt lat="44.78995" lon="6.97294">
        <ele>2582.24</ele>
        <time>2018-09-12T09:11:38Z</time>
      </trkpt>
      <trkpt lat="44.78996" lon="6.97284">
        <ele>2584.64</ele>
        <time>2018-09-12T09:11:52Z</time>
      </trkpt>
      <trkpt lat="44.79" lon="6.97278">
        <ele>2587.53</ele>
        <time>2018-09-12T09:12:11Z</time>
      </trkpt>
      <trkpt lat="44.79003" lon="6.97263">
        <ele>2590.89</ele>
        <time>2018-09-12T09:12:33Z</time>
      </trkpt>
      <trkpt lat="44.79006" lon="6.9725">
        <ele>2591.37</ele>
        <time>2018-09-12T09:12:47Z</time>
      </trkpt>
      <trkpt lat="44.79009" lon="6.97238">
        <ele>2592.33</ele>
        <time>2018-09-12T09:13:01Z</time>
      </trkpt>
      <trkpt lat="44.79013" lon="6.97226">
        <ele>2594.25</ele>
        <time>2018-09-12T09:13:15Z</time>
      </trkpt>
      <trkpt lat="44.7902" lon="6.97215">
        <ele>2595.7</ele>
        <time>2018-09-12T09:13:27Z</time>
      </trkpt>
      <trkpt lat="44.79024" lon="6.97204">
        <ele>2596.18</ele>
        <time>2018-09-12T09:13:40Z</time>
      </trkpt>
      <trkpt lat="44.79024" lon="6.97191">
        <ele>2596.18</ele>
        <time>2018-09-12T09:13:58Z</time>
      </trkpt>
      <trkpt lat="44.79027" lon="6.97179">
        <ele>2596.18</ele>
        <time>2018-09-12T09:14:10Z</time>
      </trkpt>
      <trkpt lat="44.79029" lon="6.97167">
        <ele>2594.74</ele>
        <time>2018-09-12T09:14:22Z</time>
      </trkpt>
      <trkpt lat="44.7903" lon="6.97153">
        <ele>2593.29</ele>
        <time>2018-09-12T09:14:33Z</time>
      </trkpt>
      <trkpt lat="44.79033" lon="6.9714">
        <ele>2591.85</ele>
        <time>2018-09-12T09:14:44Z</time>
      </trkpt>
      <trkpt lat="44.79036" lon="6.97127">
        <ele>2591.85</ele>
        <time>2018-09-12T09:14:54Z</time>
      </trkpt>
      <trkpt lat="44.79037" lon="6.97114">
        <ele>2592.33</ele>
        <time>2018-09-12T09:15:04Z</time>
      </trkpt>
      <trkpt lat="44.79038" lon="6.971">
        <ele>2592.33</ele>
        <time>2018-09-12T09:15:14Z</time>
      </trkpt>
      <trkpt lat="44.7904" lon="6.97087">
        <ele>2590.89</ele>
        <time>2018-09-12T09:15:25Z</time>
      </trkpt>
      <trkpt lat="44.79045" lon="6.97075">
        <ele>2589.93</ele>
        <time>2018-09-12T09:15:36Z</time>
      </trkpt>
      <trkpt lat="44.79049" lon="6.97063">
        <ele>2588.97</ele>
        <time>2018-09-12T09:15:45Z</time>
      </trkpt>
      <trkpt lat="44.79054" lon="6.97052">
        <ele>2587.04</ele>
        <time>2018-09-12T09:15:54Z</time>
      </trkpt>
      <trkpt lat="44.79058" lon="6.9704">
        <ele>2586.56</ele>
        <time>2018-09-12T09:16:03Z</time>
      </trkpt>
      <trkpt lat="44.79064" lon="6.97029">
        <ele>2586.08</ele>
        <time>2018-09-12T09:16:12Z</time>
      </trkpt>
      <trkpt lat="44.7907" lon="6.97019">
        <ele>2586.08</ele>
        <time>2018-09-12T09:16:21Z</time>
      </trkpt>
      <trkpt lat="44.79079" lon="6.97011">
        <ele>2586.08</ele>
        <time>2018-09-12T09:16:31Z</time>
      </trkpt>
      <trkpt lat="44.79084" lon="6.97">
        <ele>2586.08</ele>
        <time>2018-09-12T09:16:40Z</time>
      </trkpt>
      <trkpt lat="44.7909" lon="6.9699">
        <ele>2586.56</ele>
        <time>2018-09-12T09:16:52Z</time>
      </trkpt>
      <trkpt lat="44.79098" lon="6.96982">
        <ele>2588.01</ele>
        <time>2018-09-12T09:17:03Z</time>
      </trkpt>
      <trkpt lat="44.79104" lon="6.96972">
        <ele>2588.49</ele>
        <time>2018-09-12T09:17:14Z</time>
      </trkpt>
      <trkpt lat="44.79109" lon="6.9696">
        <ele>2588.97</ele>
        <time>2018-09-12T09:17:44Z</time>
      </trkpt>
      <trkpt lat="44.79113" lon="6.96949">
        <ele>2586.56</ele>
        <time>2018-09-12T09:17:55Z</time>
      </trkpt>
      <trkpt lat="44.79115" lon="6.96937">
        <ele>2583.68</ele>
        <time>2018-09-12T09:18:05Z</time>
      </trkpt>
      <trkpt lat="44.79118" lon="6.96924">
        <ele>2583.2</ele>
        <time>2018-09-12T09:18:15Z</time>
      </trkpt>
      <trkpt lat="44.79121" lon="6.96911">
        <ele>2581.28</ele>
        <time>2018-09-12T09:18:24Z</time>
      </trkpt>
      <trkpt lat="44.79124" lon="6.96897">
        <ele>2582.24</ele>
        <time>2018-09-12T09:18:34Z</time>
      </trkpt>
      <trkpt lat="44.79126" lon="6.96884">
        <ele>2583.2</ele>
        <time>2018-09-12T09:18:45Z</time>
      </trkpt>
      <trkpt lat="44.7913" lon="6.96871">
        <ele>2583.2</ele>
        <time>2018-09-12T09:18:56Z</time>
      </trkpt>
      <trkpt lat="44.79135" lon="6.96859">
        <ele>2584.64</ele>
        <time>2018-09-12T09:19:07Z</time>
      </trkpt>
      <trkpt lat="44.79142" lon="6.96849">
        <ele>2586.08</ele>
        <time>2018-09-12T09:19:17Z</time>
      </trkpt>
      <trkpt lat="44.79148" lon="6.96839">
        <ele>2586.56</ele>
        <time>2018-09-12T09:19:29Z</time>
      </trkpt>
      <trkpt lat="44.79155" lon="6.96831">
        <ele>2589.45</ele>
        <time>2018-09-12T09:19:45Z</time>
      </trkpt>
      <trkpt lat="44.79161" lon="6.96824">
        <ele>2589.45</ele>
        <time>2018-09-12T09:20:13Z</time>
      </trkpt>
      <trkpt lat="44.79168" lon="6.96817">
        <ele>2589.93</ele>
        <time>2018-09-12T09:20:34Z</time>
      </trkpt>
      <trkpt lat="44.79176" lon="6.96809">
        <ele>2589.45</ele>
        <time>2018-09-12T09:20:44Z</time>
      </trkpt>
      <trkpt lat="44.79181" lon="6.96799">
        <ele>2588.97</ele>
        <time>2018-09-12T09:20:54Z</time>
      </trkpt>
      <trkpt lat="44.79188" lon="6.96791">
        <ele>2584.16</ele>
        <time>2018-09-12T09:21:07Z</time>
      </trkpt>
      <trkpt lat="44.79193" lon="6.9678">
        <ele>2585.6</ele>
        <time>2018-09-12T09:21:43Z</time>
      </trkpt>
      <trkpt lat="44.79195" lon="6.96769">
        <ele>2583.68</ele>
        <time>2018-09-12T09:22:17Z</time>
      </trkpt>
      <trkpt lat="44.792" lon="6.96759">
        <ele>2582.24</ele>
        <time>2018-09-12T09:22:30Z</time>
      </trkpt>
      <trkpt lat="44.79208" lon="6.96754">
        <ele>2578.87</ele>
        <time>2018-09-12T09:22:44Z</time>
      </trkpt>
      <trkpt lat="44.79214" lon="6.96745">
        <ele>2576.95</ele>
        <time>2018-09-12T09:22:59Z</time>
      </trkpt>
      <trkpt lat="44.79213" lon="6.96735">
        <ele>2574.55</ele>
        <time>2018-09-12T09:23:14Z</time>
      </trkpt>
      <trkpt lat="44.79217" lon="6.96726">
        <ele>2571.66</ele>
        <time>2018-09-12T09:23:31Z</time>
      </trkpt>
      <trkpt lat="44.79219" lon="6.96713">
        <ele>2569.26</ele>
        <time>2018-09-12T09:23:51Z</time>
      </trkpt>
      <trkpt lat="44.79221" lon="6.967">
        <ele>2566.38</ele>
        <time>2018-09-12T09:24:06Z</time>
      </trkpt>
      <trkpt lat="44.79225" lon="6.96689">
        <ele>2563.97</ele>
        <time>2018-09-12T09:24:21Z</time>
      </trkpt>
      <trkpt lat="44.79229" lon="6.96677">
        <ele>2560.13</ele>
        <time>2018-09-12T09:24:40Z</time>
      </trkpt>
      <trkpt lat="44.79232" lon="6.96665">
        <ele>2556.76</ele>
        <time>2018-09-12T09:24:54Z</time>
      </trkpt>
      <trkpt lat="44.79237" lon="6.96654">
        <ele>2555.32</ele>
        <time>2018-09-12T09:25:06Z</time>
      </trkpt>
      <trkpt lat="44.79245" lon="6.96648">
        <ele>2553.88</ele>
        <time>2018-09-12T09:25:18Z</time>
      </trkpt>
      <trkpt lat="44.79251" lon="6.96638">
        <ele>2551.48</ele>
        <time>2018-09-12T09:25:33Z</time>
      </trkpt>
      <trkpt lat="44.79259" lon="6.9663">
        <ele>2549.07</ele>
        <time>2018-09-12T09:25:48Z</time>
      </trkpt>
      <trkpt lat="44.79265" lon="6.96621">
        <ele>2547.15</ele>
        <time>2018-09-12T09:26:00Z</time>
      </trkpt>
      <trkpt lat="44.79274" lon="6.96616">
        <ele>2545.23</ele>
        <time>2018-09-12T09:26:14Z</time>
      </trkpt>
      <trkpt lat="44.7928" lon="6.96608">
        <ele>2541.86</ele>
        <time>2018-09-12T09:26:27Z</time>
      </trkpt>
      <trkpt lat="44.79283" lon="6.96596">
        <ele>2539.94</ele>
        <time>2018-09-12T09:26:41Z</time>
      </trkpt>
      <trkpt lat="44.79286" lon="6.96585">
        <ele>2537.06</ele>
        <time>2018-09-12T09:26:54Z</time>
      </trkpt>
      <trkpt lat="44.79291" lon="6.96573">
        <ele>2535.61</ele>
        <time>2018-09-12T09:27:05Z</time>
      </trkpt>
      <trkpt lat="44.79297" lon="6.96564">
        <ele>2533.69</ele>
        <time>2018-09-12T09:27:20Z</time>
      </trkpt>
      <trkpt lat="44.79304" lon="6.96555">
        <ele>2532.25</ele>
        <time>2018-09-12T09:27:33Z</time>
      </trkpt>
      <trkpt lat="44.79312" lon="6.96549">
        <ele>2533.69</ele>
        <time>2018-09-12T09:27:46Z</time>
      </trkpt>
      <trkpt lat="44.79318" lon="6.96538">
        <ele>2532.73</ele>
        <time>2018-09-12T09:27:59Z</time>
      </trkpt>
      <trkpt lat="44.79321" lon="6.96526">
        <ele>2530.81</ele>
        <time>2018-09-12T09:28:11Z</time>
      </trkpt>
      <trkpt lat="44.79327" lon="6.96515">
        <ele>2528.89</ele>
        <time>2018-09-12T09:28:23Z</time>
      </trkpt>
      <trkpt lat="44.79328" lon="6.96503">
        <ele>2528.4</ele>
        <time>2018-09-12T09:28:35Z</time>
      </trkpt>
      <trkpt lat="44.79329" lon="6.96502">
        <ele>2529.85</ele>
        <time>2018-09-12T09:29:33Z</time>
      </trkpt>
      <trkpt lat="44.79337" lon="6.96499">
        <ele>2531.29</ele>
        <time>2018-09-12T09:29:59Z</time>
      </trkpt>
      <trkpt lat="44.79337" lon="6.96501">
        <ele>2530.81</ele>
        <time>2018-09-12T09:30:29Z</time>
      </trkpt>
      <trkpt lat="44.79336" lon="6.96502">
        <ele>2526.48</ele>
        <time>2018-09-12T10:03:01Z</time>
      </trkpt>
      <trkpt lat="44.79335" lon="6.96492">
        <ele>2528.4</ele>
        <time>2018-09-12T10:03:24Z</time>
      </trkpt>
      <trkpt lat="44.7934" lon="6.96488">
        <ele>2528.4</ele>
        <time>2018-09-12T10:04:50Z</time>
      </trkpt>
      <trkpt lat="44.79342" lon="6.96476">
        <ele>2525.04</ele>
        <time>2018-09-12T10:05:31Z</time>
      </trkpt>
      <trkpt lat="44.79347" lon="6.96463">
        <ele>2522.64</ele>
        <time>2018-09-12T10:05:44Z</time>
      </trkpt>
      <trkpt lat="44.79352" lon="6.96454">
        <ele>2520.71</ele>
        <time>2018-09-12T10:05:56Z</time>
      </trkpt>
      <trkpt lat="44.79353" lon="6.96443">
        <ele>2517.35</ele>
        <time>2018-09-12T10:06:09Z</time>
      </trkpt>
      <trkpt lat="44.79354" lon="6.96434">
        <ele>2516.39</ele>
        <time>2018-09-12T10:06:20Z</time>
      </trkpt>
      <trkpt lat="44.79357" lon="6.96423">
        <ele>2514.95</ele>
        <time>2018-09-12T10:06:30Z</time>
      </trkpt>
      <trkpt lat="44.79361" lon="6.96412">
        <ele>2512.06</ele>
        <time>2018-09-12T10:06:42Z</time>
      </trkpt>
      <trkpt lat="44.79367" lon="6.96401">
        <ele>2508.7</ele>
        <time>2018-09-12T10:06:53Z</time>
      </trkpt>
      <trkpt lat="44.79373" lon="6.96392">
        <ele>2505.81</ele>
        <time>2018-09-12T10:07:05Z</time>
      </trkpt>
      <trkpt lat="44.79378" lon="6.96382">
        <ele>2502.45</ele>
        <time>2018-09-12T10:07:16Z</time>
      </trkpt>
      <trkpt lat="44.79384" lon="6.96372">
        <ele>2501.97</ele>
        <time>2018-09-12T10:07:27Z</time>
      </trkpt>
      <trkpt lat="44.79391" lon="6.96361">
        <ele>2499.57</ele>
        <time>2018-09-12T10:07:41Z</time>
      </trkpt>
      <trkpt lat="44.79394" lon="6.9635">
        <ele>2497.16</ele>
        <time>2018-09-12T10:07:52Z</time>
      </trkpt>
      <trkpt lat="44.79401" lon="6.96341">
        <ele>2495.24</ele>
        <time>2018-09-12T10:08:02Z</time>
      </trkpt>
      <trkpt lat="44.79406" lon="6.96332">
        <ele>2493.32</ele>
        <time>2018-09-12T10:08:13Z</time>
      </trkpt>
      <trkpt lat="44.79412" lon="6.96323">
        <ele>2490.91</ele>
        <time>2018-09-12T10:08:25Z</time>
      </trkpt>
      <trkpt lat="44.79419" lon="6.96316">
        <ele>2488.99</ele>
        <time>2018-09-12T10:08:38Z</time>
      </trkpt>
      <trkpt lat="44.79429" lon="6.96311">
        <ele>2484.66</ele>
        <time>2018-09-12T10:08:53Z</time>
      </trkpt>
      <trkpt lat="44.79433" lon="6.96301">
        <ele>2479.38</ele>
        <time>2018-09-12T10:09:09Z</time>
      </trkpt>
      <trkpt lat="44.7944" lon="6.96294">
        <ele>2479.38</ele>
        <time>2018-09-12T10:09:31Z</time>
      </trkpt>
      <trkpt lat="44.79447" lon="6.96294">
        <ele>2471.69</ele>
        <time>2018-09-12T10:09:43Z</time>
      </trkpt>
      <trkpt lat="44.79449" lon="6.9628">
        <ele>2469.76</ele>
        <time>2018-09-12T10:09:55Z</time>
      </trkpt>
      <trkpt lat="44.79452" lon="6.9627">
        <ele>2466.4</ele>
        <time>2018-09-12T10:10:10Z</time>
      </trkpt>
      <trkpt lat="44.79456" lon="6.96263">
        <ele>2463.04</ele>
        <time>2018-09-12T10:10:21Z</time>
      </trkpt>
      <trkpt lat="44.79462" lon="6.96253">
        <ele>2462.55</ele>
        <time>2018-09-12T10:10:30Z</time>
      </trkpt>
      <trkpt lat="44.79467" lon="6.96245">
        <ele>2459.67</ele>
        <time>2018-09-12T10:10:49Z</time>
      </trkpt>
      <trkpt lat="44.79475" lon="6.9624">
        <ele>2457.75</ele>
        <time>2018-09-12T10:10:59Z</time>
      </trkpt>
      <trkpt lat="44.7948" lon="6.96228">
        <ele>2454.38</ele>
        <time>2018-09-12T10:11:14Z</time>
      </trkpt>
      <trkpt lat="44.79479" lon="6.96218">
        <ele>2448.62</ele>
        <time>2018-09-12T10:11:30Z</time>
      </trkpt>
      <trkpt lat="44.79477" lon="6.96208">
        <ele>2443.81</ele>
        <time>2018-09-12T10:11:44Z</time>
      </trkpt>
      <trkpt lat="44.79482" lon="6.96196">
        <ele>2439.48</ele>
        <time>2018-09-12T10:12:02Z</time>
      </trkpt>
      <trkpt lat="44.79484" lon="6.9619">
        <ele>2435.64</ele>
        <time>2018-09-12T10:12:22Z</time>
      </trkpt>
      <trkpt lat="44.79491" lon="6.9618">
        <ele>2433.23</ele>
        <time>2018-09-12T10:12:36Z</time>
      </trkpt>
      <trkpt lat="44.79491" lon="6.96168">
        <ele>2429.87</ele>
        <time>2018-09-12T10:12:49Z</time>
      </trkpt>
      <trkpt lat="44.79501" lon="6.96163">
        <ele>2426.99</ele>
        <time>2018-09-12T10:13:07Z</time>
      </trkpt>
      <trkpt lat="44.79507" lon="6.9616">
        <ele>2424.58</ele>
        <time>2018-09-12T10:13:20Z</time>
      </trkpt>
      <trkpt lat="44.79514" lon="6.9615">
        <ele>2420.74</ele>
        <time>2018-09-12T10:13:34Z</time>
      </trkpt>
      <trkpt lat="44.79516" lon="6.96138">
        <ele>2417.85</ele>
        <time>2018-09-12T10:13:47Z</time>
      </trkpt>
      <trkpt lat="44.79522" lon="6.96127">
        <ele>2414.49</ele>
        <time>2018-09-12T10:13:59Z</time>
      </trkpt>
      <trkpt lat="44.7953" lon="6.96119">
        <ele>2411.12</ele>
        <time>2018-09-12T10:14:09Z</time>
      </trkpt>
      <trkpt lat="44.79539" lon="6.96112">
        <ele>2409.2</ele>
        <time>2018-09-12T10:14:20Z</time>
      </trkpt>
      <trkpt lat="44.79546" lon="6.96105">
        <ele>2407.76</ele>
        <time>2018-09-12T10:14:32Z</time>
      </trkpt>
      <trkpt lat="44.79552" lon="6.96095">
        <ele>2404.39</ele>
        <time>2018-09-12T10:14:45Z</time>
      </trkpt>
      <trkpt lat="44.79557" lon="6.96086">
        <ele>2401.03</ele>
        <time>2018-09-12T10:14:57Z</time>
      </trkpt>
      <trkpt lat="44.79563" lon="6.96075">
        <ele>2400.07</ele>
        <time>2018-09-12T10:15:08Z</time>
      </trkpt>
      <trkpt lat="44.79568" lon="6.96065">
        <ele>2398.15</ele>
        <time>2018-09-12T10:15:18Z</time>
      </trkpt>
      <trkpt lat="44.79576" lon="6.96056">
        <ele>2395.74</ele>
        <time>2018-09-12T10:15:29Z</time>
      </trkpt>
      <trkpt lat="44.79583" lon="6.96048">
        <ele>2392.86</ele>
        <time>2018-09-12T10:15:39Z</time>
      </trkpt>
      <trkpt lat="44.79589" lon="6.9604">
        <ele>2389.97</ele>
        <time>2018-09-12T10:15:53Z</time>
      </trkpt>
      <trkpt lat="44.79594" lon="6.9603">
        <ele>2388.05</ele>
        <time>2018-09-12T10:16:05Z</time>
      </trkpt>
      <trkpt lat="44.79599" lon="6.9602">
        <ele>2386.13</ele>
        <time>2018-09-12T10:16:20Z</time>
      </trkpt>
      <trkpt lat="44.79605" lon="6.96009">
        <ele>2381.8</ele>
        <time>2018-09-12T10:16:30Z</time>
      </trkpt>
      <trkpt lat="44.79611" lon="6.95999">
        <ele>2379.4</ele>
        <time>2018-09-12T10:16:43Z</time>
      </trkpt>
      <trkpt lat="44.79617" lon="6.95993">
        <ele>2379.4</ele>
        <time>2018-09-12T10:17:24Z</time>
      </trkpt>
      <trkpt lat="44.79625" lon="6.95998">
        <ele>2377.48</ele>
        <time>2018-09-12T10:17:33Z</time>
      </trkpt>
      <trkpt lat="44.79629" lon="6.96011">
        <ele>2375.07</ele>
        <time>2018-09-12T10:17:45Z</time>
      </trkpt>
      <trkpt lat="44.79631" lon="6.96024">
        <ele>2373.15</ele>
        <time>2018-09-12T10:18:01Z</time>
      </trkpt>
      <trkpt lat="44.79633" lon="6.96036">
        <ele>2370.75</ele>
        <time>2018-09-12T10:18:14Z</time>
      </trkpt>
      <trkpt lat="44.79637" lon="6.96046">
        <ele>2369.79</ele>
        <time>2018-09-12T10:18:29Z</time>
      </trkpt>
      <trkpt lat="44.79644" lon="6.96054">
        <ele>2367.38</ele>
        <time>2018-09-12T10:18:48Z</time>
      </trkpt>
      <trkpt lat="44.79648" lon="6.96067">
        <ele>2365.94</ele>
        <time>2018-09-12T10:18:59Z</time>
      </trkpt>
      <trkpt lat="44.79653" lon="6.96078">
        <ele>2364.02</ele>
        <time>2018-09-12T10:19:09Z</time>
      </trkpt>
      <trkpt lat="44.79656" lon="6.96091">
        <ele>2364.02</ele>
        <time>2018-09-12T10:19:18Z</time>
      </trkpt>
      <trkpt lat="44.79659" lon="6.96104">
        <ele>2363.54</ele>
        <time>2018-09-12T10:19:28Z</time>
      </trkpt>
      <trkpt lat="44.79663" lon="6.96115">
        <ele>2360.65</ele>
        <time>2018-09-12T10:19:38Z</time>
      </trkpt>
      <trkpt lat="44.79666" lon="6.96132">
        <ele>2358.73</ele>
        <time>2018-09-12T10:19:48Z</time>
      </trkpt>
      <trkpt lat="44.79668" lon="6.96148">
        <ele>2357.29</ele>
        <time>2018-09-12T10:19:58Z</time>
      </trkpt>
      <trkpt lat="44.79673" lon="6.9616">
        <ele>2354.41</ele>
        <time>2018-09-12T10:20:09Z</time>
      </trkpt>
      <trkpt lat="44.79671" lon="6.96173">
        <ele>2352.48</ele>
        <time>2018-09-12T10:20:21Z</time>
      </trkpt>
      <trkpt lat="44.79666" lon="6.9618">
        <ele>2351.04</ele>
        <time>2018-09-12T10:20:32Z</time>
      </trkpt>
      <trkpt lat="44.79662" lon="6.96193">
        <ele>2348.64</ele>
        <time>2018-09-12T10:20:42Z</time>
      </trkpt>
      <trkpt lat="44.79661" lon="6.96206">
        <ele>2345.27</ele>
        <time>2018-09-12T10:20:53Z</time>
      </trkpt>
      <trkpt lat="44.79661" lon="6.9622">
        <ele>2342.39</ele>
        <time>2018-09-12T10:21:05Z</time>
      </trkpt>
      <trkpt lat="44.7966" lon="6.96233">
        <ele>2339.99</ele>
        <time>2018-09-12T10:21:16Z</time>
      </trkpt>
      <trkpt lat="44.79657" lon="6.96245">
        <ele>2339.02</ele>
        <time>2018-09-12T10:21:27Z</time>
      </trkpt>
      <trkpt lat="44.79654" lon="6.96254">
        <ele>2335.18</ele>
        <time>2018-09-12T10:21:45Z</time>
      </trkpt>
      <trkpt lat="44.79651" lon="6.9627">
        <ele>2332.3</ele>
        <time>2018-09-12T10:21:56Z</time>
      </trkpt>
      <trkpt lat="44.79648" lon="6.9628">
        <ele>2330.85</ele>
        <time>2018-09-12T10:22:06Z</time>
      </trkpt>
      <trkpt lat="44.7965" lon="6.96292">
        <ele>2327.97</ele>
        <time>2018-09-12T10:22:15Z</time>
      </trkpt>
      <trkpt lat="44.79644" lon="6.96307">
        <ele>2327.01</ele>
        <time>2018-09-12T10:22:28Z</time>
      </trkpt>
      <trkpt lat="44.79642" lon="6.9632">
        <ele>2323.16</ele>
        <time>2018-09-12T10:22:42Z</time>
      </trkpt>
      <trkpt lat="44.79636" lon="6.9633">
        <ele>2320.76</ele>
        <time>2018-09-12T10:22:55Z</time>
      </trkpt>
      <trkpt lat="44.7963" lon="6.96341">
        <ele>2318.84</ele>
        <time>2018-09-12T10:23:05Z</time>
      </trkpt>
      <trkpt lat="44.79625" lon="6.96352">
        <ele>2315.95</ele>
        <time>2018-09-12T10:23:17Z</time>
      </trkpt>
      <trkpt lat="44.79616" lon="6.96363">
        <ele>2314.99</ele>
        <time>2018-09-12T10:23:27Z</time>
      </trkpt>
      <trkpt lat="44.79608" lon="6.96371">
        <ele>2314.03</ele>
        <time>2018-09-12T10:23:36Z</time>
      </trkpt>
      <trkpt lat="44.79604" lon="6.96383">
        <ele>2312.11</ele>
        <time>2018-09-12T10:23:45Z</time>
      </trkpt>
      <trkpt lat="44.79603" lon="6.96394">
        <ele>2311.63</ele>
        <time>2018-09-12T10:23:54Z</time>
      </trkpt>
      <trkpt lat="44.79601" lon="6.96407">
        <ele>2310.67</ele>
        <time>2018-09-12T10:24:03Z</time>
      </trkpt>
      <trkpt lat="44.79601" lon="6.96421">
        <ele>2308.26</ele>
        <time>2018-09-12T10:24:14Z</time>
      </trkpt>
      <trkpt lat="44.79601" lon="6.96435">
        <ele>2305.86</ele>
        <time>2018-09-12T10:24:23Z</time>
      </trkpt>
      <trkpt lat="44.79604" lon="6.96446">
        <ele>2305.38</ele>
        <time>2018-09-12T10:24:33Z</time>
      </trkpt>
      <trkpt lat="44.79611" lon="6.96454">
        <ele>2304.9</ele>
        <time>2018-09-12T10:24:42Z</time>
      </trkpt>
      <trkpt lat="44.79614" lon="6.96444">
        <ele>2302.49</ele>
        <time>2018-09-12T10:24:54Z</time>
      </trkpt>
      <trkpt lat="44.79616" lon="6.96428">
        <ele>2300.09</ele>
        <time>2018-09-12T10:25:07Z</time>
      </trkpt>
      <trkpt lat="44.79624" lon="6.96429">
        <ele>2297.21</ele>
        <time>2018-09-12T10:25:22Z</time>
      </trkpt>
      <trkpt lat="44.79632" lon="6.9642">
        <ele>2292.88</ele>
        <time>2018-09-12T10:25:37Z</time>
      </trkpt>
      <trkpt lat="44.79638" lon="6.96411">
        <ele>2290</ele>
        <time>2018-09-12T10:25:49Z</time>
      </trkpt>
      <trkpt lat="44.79648" lon="6.96415">
        <ele>2288.08</ele>
        <time>2018-09-12T10:25:59Z</time>
      </trkpt>
      <trkpt lat="44.79657" lon="6.9642">
        <ele>2286.15</ele>
        <time>2018-09-12T10:26:11Z</time>
      </trkpt>
      <trkpt lat="44.79665" lon="6.96425">
        <ele>2284.23</ele>
        <time>2018-09-12T10:26:21Z</time>
      </trkpt>
      <trkpt lat="44.7967" lon="6.96438">
        <ele>2282.79</ele>
        <time>2018-09-12T10:26:32Z</time>
      </trkpt>
      <trkpt lat="44.79676" lon="6.96448">
        <ele>2280.38</ele>
        <time>2018-09-12T10:26:42Z</time>
      </trkpt>
      <trkpt lat="44.79683" lon="6.96459">
        <ele>2278.46</ele>
        <time>2018-09-12T10:26:52Z</time>
      </trkpt>
      <trkpt lat="44.79687" lon="6.96471">
        <ele>2276.54</ele>
        <time>2018-09-12T10:27:01Z</time>
      </trkpt>
      <trkpt lat="44.79691" lon="6.96483">
        <ele>2276.06</ele>
        <time>2018-09-12T10:27:09Z</time>
      </trkpt>
      <trkpt lat="44.79696" lon="6.96495">
        <ele>2275.58</ele>
        <time>2018-09-12T10:27:18Z</time>
      </trkpt>
      <trkpt lat="44.79704" lon="6.96504">
        <ele>2276.06</ele>
        <time>2018-09-12T10:27:26Z</time>
      </trkpt>
      <trkpt lat="44.79711" lon="6.96513">
        <ele>2275.1</ele>
        <time>2018-09-12T10:27:35Z</time>
      </trkpt>
      <trkpt lat="44.79718" lon="6.96521">
        <ele>2274.62</ele>
        <time>2018-09-12T10:27:43Z</time>
      </trkpt>
      <trkpt lat="44.79725" lon="6.96528">
        <ele>2274.14</ele>
        <time>2018-09-12T10:27:51Z</time>
      </trkpt>
      <trkpt lat="44.79733" lon="6.96536">
        <ele>2273.17</ele>
        <time>2018-09-12T10:27:59Z</time>
      </trkpt>
      <trkpt lat="44.79741" lon="6.96543">
        <ele>2273.66</ele>
        <time>2018-09-12T10:28:08Z</time>
      </trkpt>
      <trkpt lat="44.7975" lon="6.96549">
        <ele>2272.69</ele>
        <time>2018-09-12T10:28:17Z</time>
      </trkpt>
      <trkpt lat="44.79759" lon="6.96555">
        <ele>2272.69</ele>
        <time>2018-09-12T10:28:27Z</time>
      </trkpt>
      <trkpt lat="44.79768" lon="6.96561">
        <ele>2270.77</ele>
        <time>2018-09-12T10:28:37Z</time>
      </trkpt>
      <trkpt lat="44.79777" lon="6.96569">
        <ele>2270.77</ele>
        <time>2018-09-12T10:28:46Z</time>
      </trkpt>
      <trkpt lat="44.79785" lon="6.96572">
        <ele>2269.81</ele>
        <time>2018-09-12T10:28:57Z</time>
      </trkpt>
      <trkpt lat="44.79794" lon="6.96572">
        <ele>2269.33</ele>
        <time>2018-09-12T10:29:06Z</time>
      </trkpt>
      <trkpt lat="44.79801" lon="6.96583">
        <ele>2269.33</ele>
        <time>2018-09-12T10:29:16Z</time>
      </trkpt>
      <trkpt lat="44.79804" lon="6.9657">
        <ele>2268.85</ele>
        <time>2018-09-12T10:29:33Z</time>
      </trkpt>
      <trkpt lat="44.79816" lon="6.96576">
        <ele>2266.93</ele>
        <time>2018-09-12T10:29:47Z</time>
      </trkpt>
      <trkpt lat="44.79825" lon="6.96579">
        <ele>2266.45</ele>
        <time>2018-09-12T10:29:57Z</time>
      </trkpt>
      <trkpt lat="44.79833" lon="6.96591">
        <ele>2265</ele>
        <time>2018-09-12T10:30:18Z</time>
      </trkpt>
      <trkpt lat="44.79842" lon="6.96593">
        <ele>2262.6</ele>
        <time>2018-09-12T10:30:32Z</time>
      </trkpt>
      <trkpt lat="44.79851" lon="6.96594">
        <ele>2260.68</ele>
        <time>2018-09-12T10:30:43Z</time>
      </trkpt>
      <trkpt lat="44.79861" lon="6.96596">
        <ele>2258.27</ele>
        <time>2018-09-12T10:30:54Z</time>
      </trkpt>
      <trkpt lat="44.79871" lon="6.96596">
        <ele>2255.87</ele>
        <time>2018-09-12T10:31:05Z</time>
      </trkpt>
      <trkpt lat="44.7988" lon="6.96598">
        <ele>2253.47</ele>
        <time>2018-09-12T10:31:16Z</time>
      </trkpt>
      <trkpt lat="44.7989" lon="6.96603">
        <ele>2251.54</ele>
        <time>2018-09-12T10:31:28Z</time>
      </trkpt>
      <trkpt lat="44.79891" lon="6.96617">
        <ele>2248.18</ele>
        <time>2018-09-12T10:31:40Z</time>
      </trkpt>
      <trkpt lat="44.79891" lon="6.96631">
        <ele>2245.3</ele>
        <time>2018-09-12T10:31:51Z</time>
      </trkpt>
      <trkpt lat="44.79892" lon="6.96644">
        <ele>2242.41</ele>
        <time>2018-09-12T10:32:02Z</time>
      </trkpt>
      <trkpt lat="44.79899" lon="6.96652">
        <ele>2239.53</ele>
        <time>2018-09-12T10:32:16Z</time>
      </trkpt>
      <trkpt lat="44.79907" lon="6.96659">
        <ele>2237.61</ele>
        <time>2018-09-12T10:32:32Z</time>
      </trkpt>
      <trkpt lat="44.79914" lon="6.96653">
        <ele>2234.24</ele>
        <time>2018-09-12T10:32:47Z</time>
      </trkpt>
      <trkpt lat="44.79924" lon="6.9666">
        <ele>2231.36</ele>
        <time>2018-09-12T10:33:00Z</time>
      </trkpt>
      <trkpt lat="44.79935" lon="6.96663">
        <ele>2227.51</ele>
        <time>2018-09-12T10:33:16Z</time>
      </trkpt>
      <trkpt lat="44.79945" lon="6.96671">
        <ele>2226.07</ele>
        <time>2018-09-12T10:33:28Z</time>
      </trkpt>
      <trkpt lat="44.79956" lon="6.96673">
        <ele>2223.19</ele>
        <time>2018-09-12T10:33:42Z</time>
      </trkpt>
      <trkpt lat="44.79966" lon="6.96675">
        <ele>2220.3</ele>
        <time>2018-09-12T10:33:55Z</time>
      </trkpt>
      <trkpt lat="44.79977" lon="6.96673">
        <ele>2217.9</ele>
        <time>2018-09-12T10:34:06Z</time>
      </trkpt>
      <trkpt lat="44.79986" lon="6.96673">
        <ele>2215.01</ele>
        <time>2018-09-12T10:34:17Z</time>
      </trkpt>
      <trkpt lat="44.79989" lon="6.96673">
        <ele>2215.01</ele>
        <time>2018-09-12T10:34:48Z</time>
      </trkpt>
      <trkpt lat="44.79997" lon="6.96675">
        <ele>2213.09</ele>
        <time>2018-09-12T10:35:00Z</time>
      </trkpt>
      <trkpt lat="44.80008" lon="6.96683">
        <ele>2211.17</ele>
        <time>2018-09-12T10:35:11Z</time>
      </trkpt>
      <trkpt lat="44.80018" lon="6.96683">
        <ele>2209.25</ele>
        <time>2018-09-12T10:35:22Z</time>
      </trkpt>
      <trkpt lat="44.80028" lon="6.96687">
        <ele>2207.81</ele>
        <time>2018-09-12T10:35:32Z</time>
      </trkpt>
      <trkpt lat="44.80035" lon="6.96686">
        <ele>2203.96</ele>
        <time>2018-09-12T10:35:44Z</time>
      </trkpt>
      <trkpt lat="44.80046" lon="6.96691">
        <ele>2203.96</ele>
        <time>2018-09-12T10:35:56Z</time>
      </trkpt>
      <trkpt lat="44.80061" lon="6.96695">
        <ele>2201.08</ele>
        <time>2018-09-12T10:36:11Z</time>
      </trkpt>
      <trkpt lat="44.80073" lon="6.96701">
        <ele>2199.63</ele>
        <time>2018-09-12T10:36:25Z</time>
      </trkpt>
      <trkpt lat="44.80086" lon="6.96699">
        <ele>2197.23</ele>
        <time>2018-09-12T10:36:39Z</time>
      </trkpt>
      <trkpt lat="44.80096" lon="6.96703">
        <ele>2195.79</ele>
        <time>2018-09-12T10:36:54Z</time>
      </trkpt>
      <trkpt lat="44.80097" lon="6.96687">
        <ele>2193.39</ele>
        <time>2018-09-12T10:37:10Z</time>
      </trkpt>
      <trkpt lat="44.80102" lon="6.96675">
        <ele>2191.46</ele>
        <time>2018-09-12T10:37:26Z</time>
      </trkpt>
      <trkpt lat="44.80105" lon="6.9666">
        <ele>2188.58</ele>
        <time>2018-09-12T10:37:39Z</time>
      </trkpt>
      <trkpt lat="44.80117" lon="6.96656">
        <ele>2187.14</ele>
        <time>2018-09-12T10:37:53Z</time>
      </trkpt>
      <trkpt lat="44.80125" lon="6.96671">
        <ele>2183.77</ele>
        <time>2018-09-12T10:38:03Z</time>
      </trkpt>
      <trkpt lat="44.8014" lon="6.96679">
        <ele>2180.41</ele>
        <time>2018-09-12T10:38:27Z</time>
      </trkpt>
      <trkpt lat="44.80149" lon="6.96692">
        <ele>2178</ele>
        <time>2018-09-12T10:38:39Z</time>
      </trkpt>
      <trkpt lat="44.8015" lon="6.96706">
        <ele>2175.6</ele>
        <time>2018-09-12T10:38:51Z</time>
      </trkpt>
      <trkpt lat="44.80156" lon="6.9672">
        <ele>2174.16</ele>
        <time>2018-09-12T10:39:03Z</time>
      </trkpt>
      <trkpt lat="44.80164" lon="6.96735">
        <ele>2172.24</ele>
        <time>2018-09-12T10:39:14Z</time>
      </trkpt>
      <trkpt lat="44.80171" lon="6.96736">
        <ele>2170.31</ele>
        <time>2018-09-12T10:39:30Z</time>
      </trkpt>
      <trkpt lat="44.80177" lon="6.96728">
        <ele>2167.91</ele>
        <time>2018-09-12T10:39:43Z</time>
      </trkpt>
      <trkpt lat="44.80185" lon="6.96718">
        <ele>2165.99</ele>
        <time>2018-09-12T10:39:55Z</time>
      </trkpt>
      <trkpt lat="44.80192" lon="6.96716">
        <ele>2164.06</ele>
        <time>2018-09-12T10:40:07Z</time>
      </trkpt>
      <trkpt lat="44.80204" lon="6.96722">
        <ele>2158.3</ele>
        <time>2018-09-12T10:40:23Z</time>
      </trkpt>
      <trkpt lat="44.80211" lon="6.96725">
        <ele>2154.45</ele>
        <time>2018-09-12T10:40:38Z</time>
      </trkpt>
      <trkpt lat="44.8022" lon="6.96723">
        <ele>2150.13</ele>
        <time>2018-09-12T10:40:59Z</time>
      </trkpt>
      <trkpt lat="44.8023" lon="6.9673">
        <ele>2146.76</ele>
        <time>2018-09-12T10:41:16Z</time>
      </trkpt>
      <trkpt lat="44.80246" lon="6.9672">
        <ele>2145.32</ele>
        <time>2018-09-12T10:41:33Z</time>
      </trkpt>
      <trkpt lat="44.80256" lon="6.9672">
        <ele>2143.4</ele>
        <time>2018-09-12T10:41:44Z</time>
      </trkpt>
      <trkpt lat="44.80272" lon="6.96733">
        <ele>2140.99</ele>
        <time>2018-09-12T10:42:03Z</time>
      </trkpt>
      <trkpt lat="44.80286" lon="6.96732">
        <ele>2139.55</ele>
        <time>2018-09-12T10:42:18Z</time>
      </trkpt>
      <trkpt lat="44.80297" lon="6.96731">
        <ele>2135.71</ele>
        <time>2018-09-12T10:42:37Z</time>
      </trkpt>
      <trkpt lat="44.80308" lon="6.96736">
        <ele>2131.86</ele>
        <time>2018-09-12T10:42:49Z</time>
      </trkpt>
      <trkpt lat="44.80318" lon="6.96741">
        <ele>2129.94</ele>
        <time>2018-09-12T10:43:00Z</time>
      </trkpt>
      <trkpt lat="44.80329" lon="6.96748">
        <ele>2127.05</ele>
        <time>2018-09-12T10:43:12Z</time>
      </trkpt>
      <trkpt lat="44.80341" lon="6.96748">
        <ele>2124.65</ele>
        <time>2018-09-12T10:43:25Z</time>
      </trkpt>
      <trkpt lat="44.80351" lon="6.96757">
        <ele>2122.25</ele>
        <time>2018-09-12T10:43:38Z</time>
      </trkpt>
      <trkpt lat="44.80362" lon="6.96764">
        <ele>2118.88</ele>
        <time>2018-09-12T10:43:49Z</time>
      </trkpt>
      <trkpt lat="44.80376" lon="6.96764">
        <ele>2116.48</ele>
        <time>2018-09-12T10:44:02Z</time>
      </trkpt>
      <trkpt lat="44.80388" lon="6.96763">
        <ele>2112.63</ele>
        <time>2018-09-12T10:44:20Z</time>
      </trkpt>
      <trkpt lat="44.804" lon="6.96775">
        <ele>2108.31</ele>
        <time>2018-09-12T10:44:46Z</time>
      </trkpt>
      <trkpt lat="44.80404" lon="6.96794">
        <ele>2105.42</ele>
        <time>2018-09-12T10:45:04Z</time>
      </trkpt>
      <trkpt lat="44.80415" lon="6.96799">
        <ele>2100.62</ele>
        <time>2018-09-12T10:45:24Z</time>
      </trkpt>
      <trkpt lat="44.80428" lon="6.96805">
        <ele>2097.25</ele>
        <time>2018-09-12T10:45:41Z</time>
      </trkpt>
      <trkpt lat="44.80438" lon="6.96801">
        <ele>2094.37</ele>
        <time>2018-09-12T10:45:57Z</time>
      </trkpt>
      <trkpt lat="44.80452" lon="6.96798">
        <ele>2090.52</ele>
        <time>2018-09-12T10:46:13Z</time>
      </trkpt>
      <trkpt lat="44.80477" lon="6.96795">
        <ele>2085.24</ele>
        <time>2018-09-12T10:46:42Z</time>
      </trkpt>
      <trkpt lat="44.80487" lon="6.96801">
        <ele>2083.31</ele>
        <time>2018-09-12T10:46:57Z</time>
      </trkpt>
      <trkpt lat="44.80502" lon="6.968">
        <ele>2080.43</ele>
        <time>2018-09-12T10:47:11Z</time>
      </trkpt>
      <trkpt lat="44.80514" lon="6.96798">
        <ele>2076.1</ele>
        <time>2018-09-12T10:47:28Z</time>
      </trkpt>
      <trkpt lat="44.80526" lon="6.96791">
        <ele>2073.22</ele>
        <time>2018-09-12T10:47:44Z</time>
      </trkpt>
      <trkpt lat="44.80535" lon="6.9679">
        <ele>2071.3</ele>
        <time>2018-09-12T10:47:55Z</time>
      </trkpt>
      <trkpt lat="44.80545" lon="6.96782">
        <ele>2068.41</ele>
        <time>2018-09-12T10:48:08Z</time>
      </trkpt>
      <trkpt lat="44.80554" lon="6.96773">
        <ele>2065.53</ele>
        <time>2018-09-12T10:48:20Z</time>
      </trkpt>
      <trkpt lat="44.80559" lon="6.96763">
        <ele>2063.61</ele>
        <time>2018-09-12T10:48:33Z</time>
      </trkpt>
      <trkpt lat="44.8057" lon="6.9675">
        <ele>2060.24</ele>
        <time>2018-09-12T10:48:50Z</time>
      </trkpt>
      <trkpt lat="44.80578" lon="6.96737">
        <ele>2058.8</ele>
        <time>2018-09-12T10:49:01Z</time>
      </trkpt>
      <trkpt lat="44.80582" lon="6.96724">
        <ele>2057.36</ele>
        <time>2018-09-12T10:49:11Z</time>
      </trkpt>
      <trkpt lat="44.80585" lon="6.96709">
        <ele>2055.92</ele>
        <time>2018-09-12T10:49:21Z</time>
      </trkpt>
      <trkpt lat="44.80589" lon="6.96694">
        <ele>2053.99</ele>
        <time>2018-09-12T10:49:31Z</time>
      </trkpt>
      <trkpt lat="44.8059" lon="6.96679">
        <ele>2053.03</ele>
        <time>2018-09-12T10:49:40Z</time>
      </trkpt>
      <trkpt lat="44.8059" lon="6.96665">
        <ele>2051.59</ele>
        <time>2018-09-12T10:49:49Z</time>
      </trkpt>
      <trkpt lat="44.80587" lon="6.96652">
        <ele>2051.11</ele>
        <time>2018-09-12T10:50:00Z</time>
      </trkpt>
      <trkpt lat="44.80582" lon="6.96636">
        <ele>2048.23</ele>
        <time>2018-09-12T10:50:09Z</time>
      </trkpt>
      <trkpt lat="44.80584" lon="6.96624">
        <ele>2045.82</ele>
        <time>2018-09-12T10:50:19Z</time>
      </trkpt>
      <trkpt lat="44.80582" lon="6.96611">
        <ele>2043.42</ele>
        <time>2018-09-12T10:50:28Z</time>
      </trkpt>
      <trkpt lat="44.80577" lon="6.96607">
        <ele>2041.5</ele>
        <time>2018-09-12T10:50:39Z</time>
      </trkpt>
      <trkpt lat="44.80574" lon="6.966">
        <ele>2040.54</ele>
        <time>2018-09-12T10:50:50Z</time>
      </trkpt>
      <trkpt lat="44.80579" lon="6.96587">
        <ele>2041.02</ele>
        <time>2018-09-12T10:51:02Z</time>
      </trkpt>
      <trkpt lat="44.80592" lon="6.96582">
        <ele>2042.46</ele>
        <time>2018-09-12T10:51:16Z</time>
      </trkpt>
      <trkpt lat="44.80619" lon="6.96569">
        <ele>2041.98</ele>
        <time>2018-09-12T10:51:42Z</time>
      </trkpt>
      <trkpt lat="44.80627" lon="6.96554">
        <ele>2042.46</ele>
        <time>2018-09-12T10:51:52Z</time>
      </trkpt>
      <trkpt lat="44.80629" lon="6.96538">
        <ele>2042.46</ele>
        <time>2018-09-12T10:52:02Z</time>
      </trkpt>
      <trkpt lat="44.8063" lon="6.96525">
        <ele>2042.46</ele>
        <time>2018-09-12T10:52:11Z</time>
      </trkpt>
      <trkpt lat="44.80626" lon="6.96509">
        <ele>2041.5</ele>
        <time>2018-09-12T10:52:20Z</time>
      </trkpt>
      <trkpt lat="44.80623" lon="6.96497">
        <ele>2041.5</ele>
        <time>2018-09-12T10:52:29Z</time>
      </trkpt>
      <trkpt lat="44.80619" lon="6.96486">
        <ele>2040.05</ele>
        <time>2018-09-12T10:52:39Z</time>
      </trkpt>
      <trkpt lat="44.80619" lon="6.9647">
        <ele>2039.09</ele>
        <time>2018-09-12T10:52:50Z</time>
      </trkpt>
      <trkpt lat="44.80616" lon="6.96455">
        <ele>2038.13</ele>
        <time>2018-09-12T10:52:59Z</time>
      </trkpt>
      <trkpt lat="44.80609" lon="6.96439">
        <ele>2037.65</ele>
        <time>2018-09-12T10:53:09Z</time>
      </trkpt>
      <trkpt lat="44.80607" lon="6.96424">
        <ele>2037.17</ele>
        <time>2018-09-12T10:53:19Z</time>
      </trkpt>
      <trkpt lat="44.80608" lon="6.96409">
        <ele>2037.65</ele>
        <time>2018-09-12T10:53:39Z</time>
      </trkpt>
      <trkpt lat="44.80603" lon="6.96393">
        <ele>2035.73</ele>
        <time>2018-09-12T10:53:59Z</time>
      </trkpt>
      <trkpt lat="44.8061" lon="6.96385">
        <ele>2034.77</ele>
        <time>2018-09-12T10:54:59Z</time>
      </trkpt>
      <trkpt lat="44.8061" lon="6.96371">
        <ele>2031.88</ele>
        <time>2018-09-12T10:55:32Z</time>
      </trkpt>
      <trkpt lat="44.80618" lon="6.96368">
        <ele>2028.52</ele>
        <time>2018-09-12T10:55:48Z</time>
      </trkpt>
      <trkpt lat="44.80615" lon="6.96375">
        <ele>2031.88</ele>
        <time>2018-09-12T10:56:01Z</time>
      </trkpt>
      <trkpt lat="44.80618" lon="6.96363">
        <ele>2027.08</ele>
        <time>2018-09-12T10:56:15Z</time>
      </trkpt>
      <trkpt lat="44.80624" lon="6.96353">
        <ele>2024.67</ele>
        <time>2018-09-12T10:56:25Z</time>
      </trkpt>
      <trkpt lat="44.80629" lon="6.96332">
        <ele>2024.67</ele>
        <time>2018-09-12T10:56:35Z</time>
      </trkpt>
      <trkpt lat="44.80634" lon="6.96317">
        <ele>2024.67</ele>
        <time>2018-09-12T10:56:45Z</time>
      </trkpt>
      <trkpt lat="44.80641" lon="6.96305">
        <ele>2025.15</ele>
        <time>2018-09-12T10:56:55Z</time>
      </trkpt>
      <trkpt lat="44.80646" lon="6.96294">
        <ele>2024.19</ele>
        <time>2018-09-12T10:57:04Z</time>
      </trkpt>
      <trkpt lat="44.80654" lon="6.9628">
        <ele>2025.64</ele>
        <time>2018-09-12T10:57:15Z</time>
      </trkpt>
      <trkpt lat="44.80665" lon="6.96274">
        <ele>2025.15</ele>
        <time>2018-09-12T10:57:25Z</time>
      </trkpt>
      <trkpt lat="44.80673" lon="6.96258">
        <ele>2026.6</ele>
        <time>2018-09-12T10:57:39Z</time>
      </trkpt>
      <trkpt lat="44.80676" lon="6.96241">
        <ele>2029.48</ele>
        <time>2018-09-12T10:57:55Z</time>
      </trkpt>
      <trkpt lat="44.80681" lon="6.96222">
        <ele>2029.96</ele>
        <time>2018-09-12T10:58:09Z</time>
      </trkpt>
      <trkpt lat="44.80681" lon="6.96206">
        <ele>2029.48</ele>
        <time>2018-09-12T10:58:22Z</time>
      </trkpt>
      <trkpt lat="44.80681" lon="6.9619">
        <ele>2029.96</ele>
        <time>2018-09-12T10:58:33Z</time>
      </trkpt>
      <trkpt lat="44.80676" lon="6.96173">
        <ele>2027.56</ele>
        <time>2018-09-12T10:58:46Z</time>
      </trkpt>
      <trkpt lat="44.80673" lon="6.96154">
        <ele>2025.15</ele>
        <time>2018-09-12T10:58:58Z</time>
      </trkpt>
      <trkpt lat="44.80669" lon="6.96139">
        <ele>2023.23</ele>
        <time>2018-09-12T10:59:11Z</time>
      </trkpt>
      <trkpt lat="44.80668" lon="6.96124">
        <ele>2023.23</ele>
        <time>2018-09-12T10:59:20Z</time>
      </trkpt>
      <trkpt lat="44.80669" lon="6.96108">
        <ele>2022.75</ele>
        <time>2018-09-12T10:59:32Z</time>
      </trkpt>
      <trkpt lat="44.80667" lon="6.96091">
        <ele>2023.23</ele>
        <time>2018-09-12T10:59:39Z</time>
      </trkpt>
      <trkpt lat="44.80673" lon="6.96079">
        <ele>2024.19</ele>
        <time>2018-09-12T10:59:48Z</time>
      </trkpt>
      <trkpt lat="44.80683" lon="6.96071">
        <ele>2023.71</ele>
        <time>2018-09-12T10:59:59Z</time>
      </trkpt>
      <trkpt lat="44.80696" lon="6.96062">
        <ele>2022.75</ele>
        <time>2018-09-12T11:00:09Z</time>
      </trkpt>
      <trkpt lat="44.80701" lon="6.96048">
        <ele>2023.23</ele>
        <time>2018-09-12T11:00:19Z</time>
      </trkpt>
      <trkpt lat="44.80706" lon="6.96035">
        <ele>2021.79</ele>
        <time>2018-09-12T11:00:27Z</time>
      </trkpt>
      <trkpt lat="44.80711" lon="6.96024">
        <ele>2022.27</ele>
        <time>2018-09-12T11:00:36Z</time>
      </trkpt>
      <trkpt lat="44.80717" lon="6.9601">
        <ele>2021.79</ele>
        <time>2018-09-12T11:00:47Z</time>
      </trkpt>
      <trkpt lat="44.80725" lon="6.96">
        <ele>2020.35</ele>
        <time>2018-09-12T11:00:57Z</time>
      </trkpt>
      <trkpt lat="44.80734" lon="6.95989">
        <ele>2019.39</ele>
        <time>2018-09-12T11:01:08Z</time>
      </trkpt>
      <trkpt lat="44.80741" lon="6.95976">
        <ele>2016.98</ele>
        <time>2018-09-12T11:01:16Z</time>
      </trkpt>
      <trkpt lat="44.80747" lon="6.95963">
        <ele>2015.54</ele>
        <time>2018-09-12T11:01:26Z</time>
      </trkpt>
      <trkpt lat="44.80754" lon="6.95949">
        <ele>2014.58</ele>
        <time>2018-09-12T11:01:36Z</time>
      </trkpt>
      <trkpt lat="44.80758" lon="6.95935">
        <ele>2015.06</ele>
        <time>2018-09-12T11:01:48Z</time>
      </trkpt>
      <trkpt lat="44.80762" lon="6.9592">
        <ele>2015.06</ele>
        <time>2018-09-12T11:01:58Z</time>
      </trkpt>
      <trkpt lat="44.80768" lon="6.95903">
        <ele>2013.62</ele>
        <time>2018-09-12T11:02:08Z</time>
      </trkpt>
      <trkpt lat="44.80772" lon="6.95885">
        <ele>2012.18</ele>
        <time>2018-09-12T11:02:22Z</time>
      </trkpt>
      <trkpt lat="44.80777" lon="6.95872">
        <ele>2010.25</ele>
        <time>2018-09-12T11:02:33Z</time>
      </trkpt>
      <trkpt lat="44.80779" lon="6.95858">
        <ele>2008.33</ele>
        <time>2018-09-12T11:02:44Z</time>
      </trkpt>
      <trkpt lat="44.80778" lon="6.95839">
        <ele>2006.89</ele>
        <time>2018-09-12T11:02:56Z</time>
      </trkpt>
      <trkpt lat="44.80779" lon="6.95824">
        <ele>2004.01</ele>
        <time>2018-09-12T11:03:07Z</time>
      </trkpt>
      <trkpt lat="44.80784" lon="6.95811">
        <ele>2002.08</ele>
        <time>2018-09-12T11:03:17Z</time>
      </trkpt>
      <trkpt lat="44.80788" lon="6.95796">
        <ele>1998.72</ele>
        <time>2018-09-12T11:03:28Z</time>
      </trkpt>
      <trkpt lat="44.8079" lon="6.95779">
        <ele>1998.72</ele>
        <time>2018-09-12T11:03:42Z</time>
      </trkpt>
      <trkpt lat="44.80791" lon="6.95763">
        <ele>1998.24</ele>
        <time>2018-09-12T11:03:58Z</time>
      </trkpt>
      <trkpt lat="44.80789" lon="6.95742">
        <ele>1998.24</ele>
        <time>2018-09-12T11:04:11Z</time>
      </trkpt>
      <trkpt lat="44.80779" lon="6.95727">
        <ele>1997.28</ele>
        <time>2018-09-12T11:04:29Z</time>
      </trkpt>
      <trkpt lat="44.8077" lon="6.95718">
        <ele>1992.95</ele>
        <time>2018-09-12T11:04:47Z</time>
      </trkpt>
      <trkpt lat="44.80767" lon="6.95699">
        <ele>1993.43</ele>
        <time>2018-09-12T11:05:02Z</time>
      </trkpt>
      <trkpt lat="44.80773" lon="6.95689">
        <ele>1992.95</ele>
        <time>2018-09-12T11:05:13Z</time>
      </trkpt>
      <trkpt lat="44.80777" lon="6.95676">
        <ele>1992.95</ele>
        <time>2018-09-12T11:05:22Z</time>
      </trkpt>
      <trkpt lat="44.80784" lon="6.95664">
        <ele>1993.43</ele>
        <time>2018-09-12T11:05:33Z</time>
      </trkpt>
      <trkpt lat="44.80791" lon="6.95652">
        <ele>1991.99</ele>
        <time>2018-09-12T11:05:43Z</time>
      </trkpt>
      <trkpt lat="44.80799" lon="6.95638">
        <ele>1991.51</ele>
        <time>2018-09-12T11:05:58Z</time>
      </trkpt>
      <trkpt lat="44.80807" lon="6.95623">
        <ele>1991.99</ele>
        <time>2018-09-12T11:06:09Z</time>
      </trkpt>
      <trkpt lat="44.80814" lon="6.95605">
        <ele>1991.51</ele>
        <time>2018-09-12T11:06:29Z</time>
      </trkpt>
      <trkpt lat="44.80832" lon="6.95603">
        <ele>1986.22</ele>
        <time>2018-09-12T11:06:50Z</time>
      </trkpt>
      <trkpt lat="44.8084" lon="6.95588">
        <ele>1986.22</ele>
        <time>2018-09-12T11:07:09Z</time>
      </trkpt>
      <trkpt lat="44.80846" lon="6.95577">
        <ele>1988.14</ele>
        <time>2018-09-12T11:07:28Z</time>
      </trkpt>
      <trkpt lat="44.80849" lon="6.9556">
        <ele>1988.62</ele>
        <time>2018-09-12T11:07:42Z</time>
      </trkpt>
      <trkpt lat="44.80856" lon="6.95546">
        <ele>1988.62</ele>
        <time>2018-09-12T11:07:55Z</time>
      </trkpt>
      <trkpt lat="44.80863" lon="6.95532">
        <ele>1989.1</ele>
        <time>2018-09-12T11:08:08Z</time>
      </trkpt>
      <trkpt lat="44.80867" lon="6.9552">
        <ele>1988.62</ele>
        <time>2018-09-12T11:08:42Z</time>
      </trkpt>
      <trkpt lat="44.80872" lon="6.95503">
        <ele>1989.1</ele>
        <time>2018-09-12T11:08:54Z</time>
      </trkpt>
      <trkpt lat="44.80879" lon="6.95485">
        <ele>1988.62</ele>
        <time>2018-09-12T11:09:07Z</time>
      </trkpt>
      <trkpt lat="44.80887" lon="6.9547">
        <ele>1988.62</ele>
        <time>2018-09-12T11:09:20Z</time>
      </trkpt>
      <trkpt lat="44.80893" lon="6.95452">
        <ele>1987.66</ele>
        <time>2018-09-12T11:09:32Z</time>
      </trkpt>
      <trkpt lat="44.80899" lon="6.95437">
        <ele>1987.66</ele>
        <time>2018-09-12T11:09:44Z</time>
      </trkpt>
      <trkpt lat="44.80901" lon="6.95418">
        <ele>1986.7</ele>
        <time>2018-09-12T11:09:55Z</time>
      </trkpt>
      <trkpt lat="44.80902" lon="6.954">
        <ele>1987.18</ele>
        <time>2018-09-12T11:10:08Z</time>
      </trkpt>
      <trkpt lat="44.80906" lon="6.95386">
        <ele>1987.18</ele>
        <time>2018-09-12T11:10:19Z</time>
      </trkpt>
      <trkpt lat="44.80917" lon="6.95377">
        <ele>1986.22</ele>
        <time>2018-09-12T11:10:30Z</time>
      </trkpt>
      <trkpt lat="44.80924" lon="6.95361">
        <ele>1986.22</ele>
        <time>2018-09-12T11:10:43Z</time>
      </trkpt>
      <trkpt lat="44.8093" lon="6.95348">
        <ele>1986.7</ele>
        <time>2018-09-12T11:10:55Z</time>
      </trkpt>
      <trkpt lat="44.80934" lon="6.95334">
        <ele>1986.22</ele>
        <time>2018-09-12T11:11:12Z</time>
      </trkpt>
      <trkpt lat="44.80936" lon="6.95317">
        <ele>1985.26</ele>
        <time>2018-09-12T11:11:23Z</time>
      </trkpt>
      <trkpt lat="44.80931" lon="6.95295">
        <ele>1985.74</ele>
        <time>2018-09-12T11:11:36Z</time>
      </trkpt>
      <trkpt lat="44.8093" lon="6.95278">
        <ele>1985.26</ele>
        <time>2018-09-12T11:11:47Z</time>
      </trkpt>
      <trkpt lat="44.80931" lon="6.95261">
        <ele>1984.3</ele>
        <time>2018-09-12T11:11:58Z</time>
      </trkpt>
      <trkpt lat="44.8093" lon="6.95242">
        <ele>1982.86</ele>
        <time>2018-09-12T11:12:11Z</time>
      </trkpt>
      <trkpt lat="44.8093" lon="6.95227">
        <ele>1981.41</ele>
        <time>2018-09-12T11:12:23Z</time>
      </trkpt>
      <trkpt lat="44.80933" lon="6.95214">
        <ele>1981.9</ele>
        <time>2018-09-12T11:12:32Z</time>
      </trkpt>
      <trkpt lat="44.80939" lon="6.95199">
        <ele>1982.38</ele>
        <time>2018-09-12T11:12:41Z</time>
      </trkpt>
      <trkpt lat="44.80946" lon="6.95188">
        <ele>1982.38</ele>
        <time>2018-09-12T11:12:50Z</time>
      </trkpt>
      <trkpt lat="44.80953" lon="6.95176">
        <ele>1982.38</ele>
        <time>2018-09-12T11:13:00Z</time>
      </trkpt>
      <trkpt lat="44.80957" lon="6.9516">
        <ele>1982.38</ele>
        <time>2018-09-12T11:13:10Z</time>
      </trkpt>
      <trkpt lat="44.80963" lon="6.95149">
        <ele>1982.86</ele>
        <time>2018-09-12T11:13:19Z</time>
      </trkpt>
      <trkpt lat="44.80972" lon="6.9514">
        <ele>1981.9</ele>
        <time>2018-09-12T11:13:29Z</time>
      </trkpt>
      <trkpt lat="44.80982" lon="6.9513">
        <ele>1981.41</ele>
        <time>2018-09-12T11:13:39Z</time>
      </trkpt>
      <trkpt lat="44.80991" lon="6.95119">
        <ele>1981.9</ele>
        <time>2018-09-12T11:13:48Z</time>
      </trkpt>
      <trkpt lat="44.80999" lon="6.95107">
        <ele>1981.41</ele>
        <time>2018-09-12T11:13:59Z</time>
      </trkpt>
      <trkpt lat="44.81009" lon="6.95097">
        <ele>1981.41</ele>
        <time>2018-09-12T11:14:27Z</time>
      </trkpt>
      <trkpt lat="44.81018" lon="6.95086">
        <ele>1980.93</ele>
        <time>2018-09-12T11:14:51Z</time>
      </trkpt>
      <trkpt lat="44.81023" lon="6.95073">
        <ele>1980.45</ele>
        <time>2018-09-12T11:15:00Z</time>
      </trkpt>
      <trkpt lat="44.81028" lon="6.95061">
        <ele>1979.49</ele>
        <time>2018-09-12T11:15:09Z</time>
      </trkpt>
      <trkpt lat="44.81032" lon="6.95047">
        <ele>1979.01</ele>
        <time>2018-09-12T11:15:18Z</time>
      </trkpt>
      <trkpt lat="44.81038" lon="6.95032">
        <ele>1979.01</ele>
        <time>2018-09-12T11:15:27Z</time>
      </trkpt>
      <trkpt lat="44.81042" lon="6.95016">
        <ele>1978.53</ele>
        <time>2018-09-12T11:15:37Z</time>
      </trkpt>
      <trkpt lat="44.81045" lon="6.95003">
        <ele>1977.57</ele>
        <time>2018-09-12T11:15:46Z</time>
      </trkpt>
      <trkpt lat="44.81049" lon="6.94989">
        <ele>1977.57</ele>
        <time>2018-09-12T11:15:56Z</time>
      </trkpt>
      <trkpt lat="44.81053" lon="6.94974">
        <ele>1977.09</ele>
        <time>2018-09-12T11:16:05Z</time>
      </trkpt>
      <trkpt lat="44.8106" lon="6.94967">
        <ele>1976.61</ele>
        <time>2018-09-12T11:16:12Z</time>
      </trkpt>
      <trkpt lat="44.81065" lon="6.94954">
        <ele>1976.61</ele>
        <time>2018-09-12T11:16:21Z</time>
      </trkpt>
      <trkpt lat="44.81069" lon="6.94941">
        <ele>1975.65</ele>
        <time>2018-09-12T11:16:30Z</time>
      </trkpt>
      <trkpt lat="44.81072" lon="6.94929">
        <ele>1976.13</ele>
        <time>2018-09-12T11:16:41Z</time>
      </trkpt>
      <trkpt lat="44.81078" lon="6.94913">
        <ele>1975.17</ele>
        <time>2018-09-12T11:17:00Z</time>
      </trkpt>
      <trkpt lat="44.81087" lon="6.94901">
        <ele>1975.17</ele>
        <time>2018-09-12T11:17:11Z</time>
      </trkpt>
      <trkpt lat="44.81094" lon="6.9489">
        <ele>1976.13</ele>
        <time>2018-09-12T11:17:21Z</time>
      </trkpt>
      <trkpt lat="44.81103" lon="6.94878">
        <ele>1975.65</ele>
        <time>2018-09-12T11:17:32Z</time>
      </trkpt>
      <trkpt lat="44.8111" lon="6.94866">
        <ele>1974.2</ele>
        <time>2018-09-12T11:17:42Z</time>
      </trkpt>
      <trkpt lat="44.81112" lon="6.94851">
        <ele>1973.72</ele>
        <time>2018-09-12T11:17:51Z</time>
      </trkpt>
      <trkpt lat="44.81115" lon="6.94838">
        <ele>1973.24</ele>
        <time>2018-09-12T11:18:00Z</time>
      </trkpt>
      <trkpt lat="44.81119" lon="6.9482">
        <ele>1973.72</ele>
        <time>2018-09-12T11:18:10Z</time>
      </trkpt>
      <trkpt lat="44.81124" lon="6.94806">
        <ele>1973.72</ele>
        <time>2018-09-12T11:18:19Z</time>
      </trkpt>
      <trkpt lat="44.81127" lon="6.94791">
        <ele>1973.72</ele>
        <time>2018-09-12T11:18:29Z</time>
      </trkpt>
      <trkpt lat="44.81131" lon="6.94775">
        <ele>1972.76</ele>
        <time>2018-09-12T11:18:39Z</time>
      </trkpt>
      <trkpt lat="44.81137" lon="6.94762">
        <ele>1972.28</ele>
        <time>2018-09-12T11:18:49Z</time>
      </trkpt>
      <trkpt lat="44.81142" lon="6.94744">
        <ele>1972.28</ele>
        <time>2018-09-12T11:18:59Z</time>
      </trkpt>
      <trkpt lat="44.81146" lon="6.94729">
        <ele>1971.8</ele>
        <time>2018-09-12T11:19:08Z</time>
      </trkpt>
      <trkpt lat="44.81148" lon="6.94715">
        <ele>1971.8</ele>
        <time>2018-09-12T11:19:16Z</time>
      </trkpt>
      <trkpt lat="44.81151" lon="6.947">
        <ele>1971.32</ele>
        <time>2018-09-12T11:19:26Z</time>
      </trkpt>
      <trkpt lat="44.81153" lon="6.94684">
        <ele>1971.8</ele>
        <time>2018-09-12T11:19:36Z</time>
      </trkpt>
      <trkpt lat="44.81155" lon="6.94669">
        <ele>1970.84</ele>
        <time>2018-09-12T11:19:47Z</time>
      </trkpt>
      <trkpt lat="44.81155" lon="6.94653">
        <ele>1971.32</ele>
        <time>2018-09-12T11:20:09Z</time>
      </trkpt>
      <trkpt lat="44.81151" lon="6.9464">
        <ele>1971.32</ele>
        <time>2018-09-12T11:20:22Z</time>
      </trkpt>
      <trkpt lat="44.81145" lon="6.94623">
        <ele>1971.32</ele>
        <time>2018-09-12T11:20:33Z</time>
      </trkpt>
      <trkpt lat="44.81138" lon="6.94608">
        <ele>1971.32</ele>
        <time>2018-09-12T11:20:45Z</time>
      </trkpt>
      <trkpt lat="44.81131" lon="6.94597">
        <ele>1970.84</ele>
        <time>2018-09-12T11:20:57Z</time>
      </trkpt>
      <trkpt lat="44.81124" lon="6.94581">
        <ele>1970.36</ele>
        <time>2018-09-12T11:21:09Z</time>
      </trkpt>
      <trkpt lat="44.81118" lon="6.94566">
        <ele>1969.88</ele>
        <time>2018-09-12T11:21:20Z</time>
      </trkpt>
      <trkpt lat="44.81109" lon="6.94552">
        <ele>1970.36</ele>
        <time>2018-09-12T11:21:32Z</time>
      </trkpt>
      <trkpt lat="44.81104" lon="6.94538">
        <ele>1969.88</ele>
        <time>2018-09-12T11:21:43Z</time>
      </trkpt>
      <trkpt lat="44.81106" lon="6.94517">
        <ele>1966.99</ele>
        <time>2018-09-12T11:22:41Z</time>
      </trkpt>
      <trkpt lat="44.811" lon="6.94503">
        <ele>1965.55</ele>
        <time>2018-09-12T11:22:51Z</time>
      </trkpt>
      <trkpt lat="44.81099" lon="6.94488">
        <ele>1964.11</ele>
        <time>2018-09-12T11:23:00Z</time>
      </trkpt>
      <trkpt lat="44.811" lon="6.94473">
        <ele>1963.15</ele>
        <time>2018-09-12T11:23:09Z</time>
      </trkpt>
      <trkpt lat="44.81098" lon="6.94459">
        <ele>1962.67</ele>
        <time>2018-09-12T11:23:20Z</time>
      </trkpt>
      <trkpt lat="44.81098" lon="6.94445">
        <ele>1960.27</ele>
        <time>2018-09-12T11:23:31Z</time>
      </trkpt>
      <trkpt lat="44.81097" lon="6.94431">
        <ele>1957.86</ele>
        <time>2018-09-12T11:23:44Z</time>
      </trkpt>
      <trkpt lat="44.81095" lon="6.94415">
        <ele>1955.46</ele>
        <time>2018-09-12T11:23:56Z</time>
      </trkpt>
      <trkpt lat="44.81089" lon="6.94398">
        <ele>1953.06</ele>
        <time>2018-09-12T11:24:09Z</time>
      </trkpt>
      <trkpt lat="44.8109" lon="6.94382">
        <ele>1948.73</ele>
        <time>2018-09-12T11:24:23Z</time>
      </trkpt>
      <trkpt lat="44.8109" lon="6.94362">
        <ele>1946.33</ele>
        <time>2018-09-12T11:24:40Z</time>
      </trkpt>
      <trkpt lat="44.81087" lon="6.94347">
        <ele>1943.44</ele>
        <time>2018-09-12T11:24:58Z</time>
      </trkpt>
      <trkpt lat="44.81082" lon="6.94326">
        <ele>1941.52</ele>
        <time>2018-09-12T11:26:02Z</time>
      </trkpt>
      <trkpt lat="44.81076" lon="6.94312">
        <ele>1939.6</ele>
        <time>2018-09-12T11:26:15Z</time>
      </trkpt>
      <trkpt lat="44.81069" lon="6.94296">
        <ele>1938.64</ele>
        <time>2018-09-12T11:26:27Z</time>
      </trkpt>
      <trkpt lat="44.81064" lon="6.9428">
        <ele>1938.64</ele>
        <time>2018-09-12T11:26:40Z</time>
      </trkpt>
      <trkpt lat="44.81053" lon="6.94268">
        <ele>1940.56</ele>
        <time>2018-09-12T11:26:52Z</time>
      </trkpt>
      <trkpt lat="44.81042" lon="6.9426">
        <ele>1941.52</ele>
        <time>2018-09-12T11:27:05Z</time>
      </trkpt>
      <trkpt lat="44.8103" lon="6.94254">
        <ele>1942.96</ele>
        <time>2018-09-12T11:27:17Z</time>
      </trkpt>
      <trkpt lat="44.81018" lon="6.94248">
        <ele>1942.48</ele>
        <time>2018-09-12T11:27:29Z</time>
      </trkpt>
      <trkpt lat="44.81008" lon="6.94245">
        <ele>1943.92</ele>
        <time>2018-09-12T11:27:41Z</time>
      </trkpt>
      <trkpt lat="44.80996" lon="6.94244">
        <ele>1946.81</ele>
        <time>2018-09-12T11:27:54Z</time>
      </trkpt>
      <trkpt lat="44.80984" lon="6.94236">
        <ele>1946.81</ele>
        <time>2018-09-12T11:28:05Z</time>
      </trkpt>
      <trkpt lat="44.8097" lon="6.94231">
        <ele>1946.33</ele>
        <time>2018-09-12T11:28:21Z</time>
      </trkpt>
      <trkpt lat="44.80958" lon="6.94222">
        <ele>1942.96</ele>
        <time>2018-09-12T11:28:36Z</time>
      </trkpt>
      <trkpt lat="44.80953" lon="6.94206">
        <ele>1939.6</ele>
        <time>2018-09-12T11:28:50Z</time>
      </trkpt>
      <trkpt lat="44.80946" lon="6.94191">
        <ele>1937.19</ele>
        <time>2018-09-12T11:29:03Z</time>
      </trkpt>
      <trkpt lat="44.80936" lon="6.94184">
        <ele>1934.31</ele>
        <time>2018-09-12T11:29:16Z</time>
      </trkpt>
      <trkpt lat="44.80923" lon="6.94174">
        <ele>1928.54</ele>
        <time>2018-09-12T11:29:33Z</time>
      </trkpt>
      <trkpt lat="44.80913" lon="6.9416">
        <ele>1925.66</ele>
        <time>2018-09-12T11:29:51Z</time>
      </trkpt>
      <trkpt lat="44.809" lon="6.94148">
        <ele>1922.29</ele>
        <time>2018-09-12T11:30:08Z</time>
      </trkpt>
      <trkpt lat="44.80891" lon="6.94136">
        <ele>1918.45</ele>
        <time>2018-09-12T11:30:21Z</time>
      </trkpt>
      <trkpt lat="44.80884" lon="6.94124">
        <ele>1916.53</ele>
        <time>2018-09-12T11:30:32Z</time>
      </trkpt>
      <trkpt lat="44.80877" lon="6.94113">
        <ele>1916.04</ele>
        <time>2018-09-12T11:30:42Z</time>
      </trkpt>
      <trkpt lat="44.80867" lon="6.94107">
        <ele>1914.6</ele>
        <time>2018-09-12T11:30:52Z</time>
      </trkpt>
      <trkpt lat="44.80857" lon="6.941">
        <ele>1915.08</ele>
        <time>2018-09-12T11:31:02Z</time>
      </trkpt>
      <trkpt lat="44.80852" lon="6.94085">
        <ele>1912.2</ele>
        <time>2018-09-12T11:31:15Z</time>
      </trkpt>
      <trkpt lat="44.80844" lon="6.9407">
        <ele>1910.28</ele>
        <time>2018-09-12T11:31:26Z</time>
      </trkpt>
      <trkpt lat="44.80835" lon="6.94061">
        <ele>1909.32</ele>
        <time>2018-09-12T11:31:38Z</time>
      </trkpt>
      <trkpt lat="44.80827" lon="6.9405">
        <ele>1906.43</ele>
        <time>2018-09-12T11:31:49Z</time>
      </trkpt>
      <trkpt lat="44.80822" lon="6.94033">
        <ele>1903.07</ele>
        <time>2018-09-12T11:32:03Z</time>
      </trkpt>
      <trkpt lat="44.80814" lon="6.94019">
        <ele>1902.59</ele>
        <time>2018-09-12T11:32:16Z</time>
      </trkpt>
      <trkpt lat="44.80805" lon="6.94005">
        <ele>1899.7</ele>
        <time>2018-09-12T11:32:30Z</time>
      </trkpt>
      <trkpt lat="44.80798" lon="6.9399">
        <ele>1895.38</ele>
        <time>2018-09-12T11:32:43Z</time>
      </trkpt>
      <trkpt lat="44.808" lon="6.93972">
        <ele>1892.97</ele>
        <time>2018-09-12T11:33:02Z</time>
      </trkpt>
      <trkpt lat="44.80799" lon="6.93959">
        <ele>1889.61</ele>
        <time>2018-09-12T11:33:18Z</time>
      </trkpt>
      <trkpt lat="44.80794" lon="6.93949">
        <ele>1887.69</ele>
        <time>2018-09-12T11:33:38Z</time>
      </trkpt>
      <trkpt lat="44.8079" lon="6.93936">
        <ele>1884.8</ele>
        <time>2018-09-12T11:33:52Z</time>
      </trkpt>
      <trkpt lat="44.80788" lon="6.9392">
        <ele>1882.4</ele>
        <time>2018-09-12T11:34:32Z</time>
      </trkpt>
      <trkpt lat="44.80787" lon="6.93904">
        <ele>1880.48</ele>
        <time>2018-09-12T11:34:43Z</time>
      </trkpt>
      <trkpt lat="44.80777" lon="6.93898">
        <ele>1878.55</ele>
        <time>2018-09-12T11:35:01Z</time>
      </trkpt>
      <trkpt lat="44.8077" lon="6.93887">
        <ele>1876.63</ele>
        <time>2018-09-12T11:35:16Z</time>
      </trkpt>
      <trkpt lat="44.80761" lon="6.93877">
        <ele>1874.71</ele>
        <time>2018-09-12T11:35:30Z</time>
      </trkpt>
      <trkpt lat="44.80761" lon="6.9386">
        <ele>1870.38</ele>
        <time>2018-09-12T11:35:46Z</time>
      </trkpt>
      <trkpt lat="44.80771" lon="6.93849">
        <ele>1867.98</ele>
        <time>2018-09-12T11:36:01Z</time>
      </trkpt>
      <trkpt lat="44.80776" lon="6.93834">
        <ele>1865.09</ele>
        <time>2018-09-12T11:36:15Z</time>
      </trkpt>
      <trkpt lat="44.80778" lon="6.93824">
        <ele>1862.69</ele>
        <time>2018-09-12T11:36:31Z</time>
      </trkpt>
      <trkpt lat="44.80768" lon="6.93818">
        <ele>1858.85</ele>
        <time>2018-09-12T11:36:52Z</time>
      </trkpt>
      <trkpt lat="44.80757" lon="6.93809">
        <ele>1856.44</ele>
        <time>2018-09-12T11:37:09Z</time>
      </trkpt>
      <trkpt lat="44.80745" lon="6.93807">
        <ele>1853.08</ele>
        <time>2018-09-12T11:37:25Z</time>
      </trkpt>
      <trkpt lat="44.80732" lon="6.93812">
        <ele>1849.23</ele>
        <time>2018-09-12T11:37:45Z</time>
      </trkpt>
      <trkpt lat="44.80721" lon="6.93805">
        <ele>1847.79</ele>
        <time>2018-09-12T11:37:57Z</time>
      </trkpt>
      <trkpt lat="44.80714" lon="6.93794">
        <ele>1847.31</ele>
        <time>2018-09-12T11:38:08Z</time>
      </trkpt>
      <trkpt lat="44.80716" lon="6.93777">
        <ele>1845.39</ele>
        <time>2018-09-12T11:38:18Z</time>
      </trkpt>
      <trkpt lat="44.80723" lon="6.93763">
        <ele>1843.95</ele>
        <time>2018-09-12T11:38:30Z</time>
      </trkpt>
      <trkpt lat="44.80729" lon="6.9375">
        <ele>1841.54</ele>
        <time>2018-09-12T11:38:40Z</time>
      </trkpt>
      <trkpt lat="44.80737" lon="6.93742">
        <ele>1841.06</ele>
        <time>2018-09-12T11:38:50Z</time>
      </trkpt>
      <trkpt lat="44.80749" lon="6.93743">
        <ele>1839.14</ele>
        <time>2018-09-12T11:39:01Z</time>
      </trkpt>
      <trkpt lat="44.80759" lon="6.93742">
        <ele>1838.66</ele>
        <time>2018-09-12T11:39:15Z</time>
      </trkpt>
      <trkpt lat="44.8077" lon="6.93744">
        <ele>1837.22</ele>
        <time>2018-09-12T11:39:31Z</time>
      </trkpt>
      <trkpt lat="44.80782" lon="6.93753">
        <ele>1833.85</ele>
        <time>2018-09-12T11:39:45Z</time>
      </trkpt>
      <trkpt lat="44.80793" lon="6.93757">
        <ele>1832.89</ele>
        <time>2018-09-12T11:39:55Z</time>
      </trkpt>
      <trkpt lat="44.80808" lon="6.9375">
        <ele>1830.49</ele>
        <time>2018-09-12T11:40:18Z</time>
      </trkpt>
      <trkpt lat="44.80819" lon="6.93742">
        <ele>1829.05</ele>
        <time>2018-09-12T11:40:30Z</time>
      </trkpt>
      <trkpt lat="44.80829" lon="6.93736">
        <ele>1828.08</ele>
        <time>2018-09-12T11:40:41Z</time>
      </trkpt>
      <trkpt lat="44.80841" lon="6.93728">
        <ele>1825.68</ele>
        <time>2018-09-12T11:40:54Z</time>
      </trkpt>
      <trkpt lat="44.80841" lon="6.93724">
        <ele>1824.24</ele>
        <time>2018-09-12T11:41:06Z</time>
      </trkpt>
      <trkpt lat="44.80827" lon="6.93732">
        <ele>1822.8</ele>
        <time>2018-09-12T11:41:25Z</time>
      </trkpt>
      <trkpt lat="44.80808" lon="6.93735">
        <ele>1821.84</ele>
        <time>2018-09-12T11:41:42Z</time>
      </trkpt>
      <trkpt lat="44.80795" lon="6.93727">
        <ele>1822.32</ele>
        <time>2018-09-12T11:41:56Z</time>
      </trkpt>
      <trkpt lat="44.80781" lon="6.93715">
        <ele>1821.35</ele>
        <time>2018-09-12T11:42:09Z</time>
      </trkpt>
      <trkpt lat="44.80768" lon="6.93708">
        <ele>1821.35</ele>
        <time>2018-09-12T11:42:23Z</time>
      </trkpt>
      <trkpt lat="44.80756" lon="6.93699">
        <ele>1820.87</ele>
        <time>2018-09-12T11:42:44Z</time>
      </trkpt>
      <trkpt lat="44.80741" lon="6.93691">
        <ele>1821.35</ele>
        <time>2018-09-12T11:42:58Z</time>
      </trkpt>
      <trkpt lat="44.80729" lon="6.93685">
        <ele>1820.87</ele>
        <time>2018-09-12T11:43:10Z</time>
      </trkpt>
      <trkpt lat="44.80716" lon="6.93653">
        <ele>1818.95</ele>
        <time>2018-09-12T11:46:00Z</time>
      </trkpt>
      <trkpt lat="44.80705" lon="6.93658">
        <ele>1814.15</ele>
        <time>2018-09-12T11:46:14Z</time>
      </trkpt>
      <trkpt lat="44.80692" lon="6.93654">
        <ele>1813.66</ele>
        <time>2018-09-12T11:46:28Z</time>
      </trkpt>
      <trkpt lat="44.80678" lon="6.93641">
        <ele>1812.7</ele>
        <time>2018-09-12T11:46:45Z</time>
      </trkpt>
      <trkpt lat="44.80669" lon="6.93627">
        <ele>1811.74</ele>
        <time>2018-09-12T11:46:58Z</time>
      </trkpt>
      <trkpt lat="44.80656" lon="6.93615">
        <ele>1808.38</ele>
        <time>2018-09-12T11:47:12Z</time>
      </trkpt>
      <trkpt lat="44.80648" lon="6.93598">
        <ele>1804.53</ele>
        <time>2018-09-12T11:47:29Z</time>
      </trkpt>
      <trkpt lat="44.80641" lon="6.93582">
        <ele>1799.24</ele>
        <time>2018-09-12T11:47:51Z</time>
      </trkpt>
      <trkpt lat="44.80626" lon="6.93577">
        <ele>1798.28</ele>
        <time>2018-09-12T11:48:13Z</time>
      </trkpt>
      <trkpt lat="44.80603" lon="6.93561">
        <ele>1798.28</ele>
        <time>2018-09-12T11:48:29Z</time>
      </trkpt>
      <trkpt lat="44.80588" lon="6.93559">
        <ele>1798.28</ele>
        <time>2018-09-12T11:48:47Z</time>
      </trkpt>
      <trkpt lat="44.80576" lon="6.93548">
        <ele>1798.28</ele>
        <time>2018-09-12T11:49:01Z</time>
      </trkpt>
      <trkpt lat="44.80559" lon="6.93541">
        <ele>1797.8</ele>
        <time>2018-09-12T11:49:17Z</time>
      </trkpt>
      <trkpt lat="44.80544" lon="6.93537">
        <ele>1797.32</ele>
        <time>2018-09-12T11:49:31Z</time>
      </trkpt>
      <trkpt lat="44.80532" lon="6.93524">
        <ele>1797.8</ele>
        <time>2018-09-12T11:49:45Z</time>
      </trkpt>
      <trkpt lat="44.80521" lon="6.9351">
        <ele>1798.28</ele>
        <time>2018-09-12T11:49:58Z</time>
      </trkpt>
      <trkpt lat="44.80508" lon="6.93498">
        <ele>1797.8</ele>
        <time>2018-09-12T11:50:11Z</time>
      </trkpt>
      <trkpt lat="44.80496" lon="6.93487">
        <ele>1797.32</ele>
        <time>2018-09-12T11:50:23Z</time>
      </trkpt>
      <trkpt lat="44.80488" lon="6.93476">
        <ele>1797.32</ele>
        <time>2018-09-12T11:50:35Z</time>
      </trkpt>
      <trkpt lat="44.80473" lon="6.93473">
        <ele>1797.8</ele>
        <time>2018-09-12T11:50:48Z</time>
      </trkpt>
      <trkpt lat="44.80463" lon="6.93479">
        <ele>1796.36</ele>
        <time>2018-09-12T11:51:02Z</time>
      </trkpt>
      <trkpt lat="44.80447" lon="6.93482">
        <ele>1797.32</ele>
        <time>2018-09-12T11:51:24Z</time>
      </trkpt>
      <trkpt lat="44.80431" lon="6.93469">
        <ele>1796.84</ele>
        <time>2018-09-12T11:51:37Z</time>
      </trkpt>
      <trkpt lat="44.80417" lon="6.93464">
        <ele>1796.36</ele>
        <time>2018-09-12T11:51:51Z</time>
      </trkpt>
      <trkpt lat="44.80401" lon="6.93464">
        <ele>1796.36</ele>
        <time>2018-09-12T11:52:06Z</time>
      </trkpt>
      <trkpt lat="44.80388" lon="6.93465">
        <ele>1796.36</ele>
        <time>2018-09-12T11:52:17Z</time>
      </trkpt>
      <trkpt lat="44.80381" lon="6.93454">
        <ele>1796.36</ele>
        <time>2018-09-12T11:52:27Z</time>
      </trkpt>
      <trkpt lat="44.80369" lon="6.93439">
        <ele>1796.36</ele>
        <time>2018-09-12T11:52:41Z</time>
      </trkpt>
      <trkpt lat="44.80359" lon="6.93427">
        <ele>1795.88</ele>
        <time>2018-09-12T11:52:53Z</time>
      </trkpt>
      <trkpt lat="44.80349" lon="6.93421">
        <ele>1795.88</ele>
        <time>2018-09-12T11:53:04Z</time>
      </trkpt>
      <trkpt lat="44.80338" lon="6.9342">
        <ele>1795.88</ele>
        <time>2018-09-12T11:53:14Z</time>
      </trkpt>
      <trkpt lat="44.80328" lon="6.93416">
        <ele>1795.4</ele>
        <time>2018-09-12T11:53:24Z</time>
      </trkpt>
      <trkpt lat="44.80317" lon="6.93411">
        <ele>1795.4</ele>
        <time>2018-09-12T11:53:34Z</time>
      </trkpt>
      <trkpt lat="44.80307" lon="6.93406">
        <ele>1795.88</ele>
        <time>2018-09-12T11:53:43Z</time>
      </trkpt>
      <trkpt lat="44.80296" lon="6.93402">
        <ele>1795.88</ele>
        <time>2018-09-12T11:53:54Z</time>
      </trkpt>
      <trkpt lat="44.80285" lon="6.93406">
        <ele>1795.4</ele>
        <time>2018-09-12T11:54:05Z</time>
      </trkpt>
      <trkpt lat="44.80274" lon="6.93417">
        <ele>1794.92</ele>
        <time>2018-09-12T11:54:16Z</time>
      </trkpt>
      <trkpt lat="44.80264" lon="6.93422">
        <ele>1795.4</ele>
        <time>2018-09-12T11:54:25Z</time>
      </trkpt>
      <trkpt lat="44.80254" lon="6.93425">
        <ele>1794.92</ele>
        <time>2018-09-12T11:54:34Z</time>
      </trkpt>
      <trkpt lat="44.80244" lon="6.93431">
        <ele>1795.4</ele>
        <time>2018-09-12T11:54:44Z</time>
      </trkpt>
      <trkpt lat="44.80235" lon="6.93439">
        <ele>1794.92</ele>
        <time>2018-09-12T11:54:53Z</time>
      </trkpt>
      <trkpt lat="44.80228" lon="6.93449">
        <ele>1794.92</ele>
        <time>2018-09-12T11:55:02Z</time>
      </trkpt>
      <trkpt lat="44.8022" lon="6.93458">
        <ele>1794.44</ele>
        <time>2018-09-12T11:55:11Z</time>
      </trkpt>
      <trkpt lat="44.80213" lon="6.93469">
        <ele>1794.92</ele>
        <time>2018-09-12T11:55:21Z</time>
      </trkpt>
      <trkpt lat="44.80204" lon="6.9348">
        <ele>1794.92</ele>
        <time>2018-09-12T11:55:31Z</time>
      </trkpt>
      <trkpt lat="44.80196" lon="6.93491">
        <ele>1795.4</ele>
        <time>2018-09-12T11:55:42Z</time>
      </trkpt>
      <trkpt lat="44.80184" lon="6.93501">
        <ele>1794.44</ele>
        <time>2018-09-12T11:56:27Z</time>
      </trkpt>
      <trkpt lat="44.80173" lon="6.93497">
        <ele>1794.44</ele>
        <time>2018-09-12T11:56:49Z</time>
      </trkpt>
      <trkpt lat="44.80161" lon="6.93489">
        <ele>1793.96</ele>
        <time>2018-09-12T11:57:01Z</time>
      </trkpt>
      <trkpt lat="44.80148" lon="6.93488">
        <ele>1793.48</ele>
        <time>2018-09-12T11:57:13Z</time>
      </trkpt>
      <trkpt lat="44.80135" lon="6.9348">
        <ele>1793.48</ele>
        <time>2018-09-12T11:57:24Z</time>
      </trkpt>
      <trkpt lat="44.80125" lon="6.93473">
        <ele>1793.48</ele>
        <time>2018-09-12T11:57:35Z</time>
      </trkpt>
      <trkpt lat="44.80113" lon="6.93469">
        <ele>1792.03</ele>
        <time>2018-09-12T11:57:46Z</time>
      </trkpt>
      <trkpt lat="44.80109" lon="6.93461">
        <ele>1788.67</ele>
        <time>2018-09-12T11:57:57Z</time>
      </trkpt>
      <trkpt lat="44.80102" lon="6.93459">
        <ele>1786.27</ele>
        <time>2018-09-12T11:58:09Z</time>
      </trkpt>
      <trkpt lat="44.80085" lon="6.9346">
        <ele>1780.98</ele>
        <time>2018-09-12T11:58:25Z</time>
      </trkpt>
      <trkpt lat="44.80088" lon="6.93447">
        <ele>1776.65</ele>
        <time>2018-09-12T11:58:40Z</time>
      </trkpt>
      <trkpt lat="44.80078" lon="6.93435">
        <ele>1773.77</ele>
        <time>2018-09-12T11:58:56Z</time>
      </trkpt>
      <trkpt lat="44.80084" lon="6.93422">
        <ele>1772.33</ele>
        <time>2018-09-12T11:59:07Z</time>
      </trkpt>
      <trkpt lat="44.80091" lon="6.93409">
        <ele>1768.48</ele>
        <time>2018-09-12T11:59:19Z</time>
      </trkpt>
      <trkpt lat="44.80092" lon="6.93391">
        <ele>1767.52</ele>
        <time>2018-09-12T11:59:31Z</time>
      </trkpt>
      <trkpt lat="44.80091" lon="6.93377">
        <ele>1763.2</ele>
        <time>2018-09-12T11:59:46Z</time>
      </trkpt>
      <trkpt lat="44.80087" lon="6.93361">
        <ele>1760.31</ele>
        <time>2018-09-12T12:00:00Z</time>
      </trkpt>
      <trkpt lat="44.8008" lon="6.93349">
        <ele>1757.43</ele>
        <time>2018-09-12T12:00:11Z</time>
      </trkpt>
      <trkpt lat="44.80073" lon="6.93341">
        <ele>1755.5</ele>
        <time>2018-09-12T12:00:23Z</time>
      </trkpt>
      <trkpt lat="44.80066" lon="6.93332">
        <ele>1752.62</ele>
        <time>2018-09-12T12:00:33Z</time>
      </trkpt>
      <trkpt lat="44.80055" lon="6.93329">
        <ele>1749.74</ele>
        <time>2018-09-12T12:00:43Z</time>
      </trkpt>
      <trkpt lat="44.80047" lon="6.93324">
        <ele>1748.29</ele>
        <time>2018-09-12T12:00:53Z</time>
      </trkpt>
      <trkpt lat="44.80037" lon="6.9332">
        <ele>1744.45</ele>
        <time>2018-09-12T12:01:06Z</time>
      </trkpt>
      <trkpt lat="44.8003" lon="6.93307">
        <ele>1740.6</ele>
        <time>2018-09-12T12:01:22Z</time>
      </trkpt>
      <trkpt lat="44.80024" lon="6.93295">
        <ele>1736.76</ele>
        <time>2018-09-12T12:01:37Z</time>
      </trkpt>
      <trkpt lat="44.80019" lon="6.93283">
        <ele>1733.88</ele>
        <time>2018-09-12T12:01:52Z</time>
      </trkpt>
      <trkpt lat="44.80009" lon="6.93277">
        <ele>1730.51</ele>
        <time>2018-09-12T12:02:04Z</time>
      </trkpt>
      <trkpt lat="44.80002" lon="6.93268">
        <ele>1728.11</ele>
        <time>2018-09-12T12:02:14Z</time>
      </trkpt>
      <trkpt lat="44.79995" lon="6.93258">
        <ele>1727.15</ele>
        <time>2018-09-12T12:02:23Z</time>
      </trkpt>
      <trkpt lat="44.79987" lon="6.93258">
        <ele>1726.67</ele>
        <time>2018-09-12T12:02:33Z</time>
      </trkpt>
      <trkpt lat="44.79979" lon="6.93265">
        <ele>1725.22</ele>
        <time>2018-09-12T12:02:42Z</time>
      </trkpt>
      <trkpt lat="44.79967" lon="6.93267">
        <ele>1724.26</ele>
        <time>2018-09-12T12:02:51Z</time>
      </trkpt>
      <trkpt lat="44.79958" lon="6.93265">
        <ele>1722.34</ele>
        <time>2018-09-12T12:03:01Z</time>
      </trkpt>
      <trkpt lat="44.79948" lon="6.9326">
        <ele>1719.94</ele>
        <time>2018-09-12T12:03:11Z</time>
      </trkpt>
      <trkpt lat="44.79939" lon="6.93251">
        <ele>1718.01</ele>
        <time>2018-09-12T12:03:21Z</time>
      </trkpt>
      <trkpt lat="44.79931" lon="6.93244">
        <ele>1715.61</ele>
        <time>2018-09-12T12:03:30Z</time>
      </trkpt>
      <trkpt lat="44.79921" lon="6.93241">
        <ele>1714.17</ele>
        <time>2018-09-12T12:03:40Z</time>
      </trkpt>
      <trkpt lat="44.79912" lon="6.93231">
        <ele>1712.73</ele>
        <time>2018-09-12T12:03:49Z</time>
      </trkpt>
      <trkpt lat="44.79904" lon="6.93228">
        <ele>1712.25</ele>
        <time>2018-09-12T12:03:58Z</time>
      </trkpt>
      <trkpt lat="44.79894" lon="6.9323">
        <ele>1711.76</ele>
        <time>2018-09-12T12:04:07Z</time>
      </trkpt>
      <trkpt lat="44.79884" lon="6.93235">
        <ele>1711.28</ele>
        <time>2018-09-12T12:04:16Z</time>
      </trkpt>
      <trkpt lat="44.79875" lon="6.93235">
        <ele>1709.84</ele>
        <time>2018-09-12T12:04:25Z</time>
      </trkpt>
      <trkpt lat="44.79865" lon="6.93234">
        <ele>1706.96</ele>
        <time>2018-09-12T12:04:36Z</time>
      </trkpt>
      <trkpt lat="44.7986" lon="6.93227">
        <ele>1705.52</ele>
        <time>2018-09-12T12:04:47Z</time>
      </trkpt>
      <trkpt lat="44.79859" lon="6.93222">
        <ele>1702.15</ele>
        <time>2018-09-12T12:05:00Z</time>
      </trkpt>
      <trkpt lat="44.79848" lon="6.93215">
        <ele>1700.23</ele>
        <time>2018-09-12T12:05:11Z</time>
      </trkpt>
      <trkpt lat="44.79838" lon="6.93214">
        <ele>1698.79</ele>
        <time>2018-09-12T12:05:20Z</time>
      </trkpt>
      <trkpt lat="44.79827" lon="6.9321">
        <ele>1697.83</ele>
        <time>2018-09-12T12:05:29Z</time>
      </trkpt>
      <trkpt lat="44.79817" lon="6.93209">
        <ele>1696.86</ele>
        <time>2018-09-12T12:05:37Z</time>
      </trkpt>
      <trkpt lat="44.79809" lon="6.93205">
        <ele>1696.86</ele>
        <time>2018-09-12T12:05:45Z</time>
      </trkpt>
      <trkpt lat="44.798" lon="6.932">
        <ele>1696.38</ele>
        <time>2018-09-12T12:05:53Z</time>
      </trkpt>
      <trkpt lat="44.79791" lon="6.93195">
        <ele>1697.83</ele>
        <time>2018-09-12T12:06:02Z</time>
      </trkpt>
      <trkpt lat="44.79781" lon="6.93194">
        <ele>1697.34</ele>
        <time>2018-09-12T12:06:13Z</time>
      </trkpt>
      <trkpt lat="44.79771" lon="6.93191">
        <ele>1694.46</ele>
        <time>2018-09-12T12:06:24Z</time>
      </trkpt>
      <trkpt lat="44.79766" lon="6.93177">
        <ele>1692.54</ele>
        <time>2018-09-12T12:06:37Z</time>
      </trkpt>
      <trkpt lat="44.79765" lon="6.93161">
        <ele>1688.69</ele>
        <time>2018-09-12T12:06:50Z</time>
      </trkpt>
      <trkpt lat="44.7976" lon="6.93149">
        <ele>1686.77</ele>
        <time>2018-09-12T12:07:02Z</time>
      </trkpt>
      <trkpt lat="44.79754" lon="6.93138">
        <ele>1684.85</ele>
        <time>2018-09-12T12:07:15Z</time>
      </trkpt>
      <trkpt lat="44.79746" lon="6.93127">
        <ele>1682.93</ele>
        <time>2018-09-12T12:07:27Z</time>
      </trkpt>
      <trkpt lat="44.79739" lon="6.93115">
        <ele>1681</ele>
        <time>2018-09-12T12:07:38Z</time>
      </trkpt>
      <trkpt lat="44.79732" lon="6.93103">
        <ele>1679.56</ele>
        <time>2018-09-12T12:07:49Z</time>
      </trkpt>
      <trkpt lat="44.79727" lon="6.93089">
        <ele>1678.12</ele>
        <time>2018-09-12T12:08:01Z</time>
      </trkpt>
      <trkpt lat="44.79723" lon="6.93076">
        <ele>1675.23</ele>
        <time>2018-09-12T12:08:13Z</time>
      </trkpt>
      <trkpt lat="44.7972" lon="6.93061">
        <ele>1671.87</ele>
        <time>2018-09-12T12:08:26Z</time>
      </trkpt>
      <trkpt lat="44.79713" lon="6.93053">
        <ele>1669.95</ele>
        <time>2018-09-12T12:08:38Z</time>
      </trkpt>
      <trkpt lat="44.79704" lon="6.93054">
        <ele>1668.02</ele>
        <time>2018-09-12T12:08:48Z</time>
      </trkpt>
      <trkpt lat="44.79695" lon="6.93052">
        <ele>1666.58</ele>
        <time>2018-09-12T12:09:00Z</time>
      </trkpt>
      <trkpt lat="44.79685" lon="6.93048">
        <ele>1664.18</ele>
        <time>2018-09-12T12:09:10Z</time>
      </trkpt>
      <trkpt lat="44.79675" lon="6.93046">
        <ele>1662.26</ele>
        <time>2018-09-12T12:09:20Z</time>
      </trkpt>
      <trkpt lat="44.79685" lon="6.93038">
        <ele>1659.85</ele>
        <time>2018-09-12T12:09:31Z</time>
      </trkpt>
      <trkpt lat="44.79683" lon="6.93036">
        <ele>1657.45</ele>
        <time>2018-09-12T12:09:41Z</time>
      </trkpt>
      <trkpt lat="44.79673" lon="6.93035">
        <ele>1656.49</ele>
        <time>2018-09-12T12:09:51Z</time>
      </trkpt>
      <trkpt lat="44.79662" lon="6.93035">
        <ele>1656.01</ele>
        <time>2018-09-12T12:10:01Z</time>
      </trkpt>
      <trkpt lat="44.79652" lon="6.93034">
        <ele>1655.05</ele>
        <time>2018-09-12T12:10:10Z</time>
      </trkpt>
      <trkpt lat="44.79641" lon="6.93032">
        <ele>1653.12</ele>
        <time>2018-09-12T12:10:20Z</time>
      </trkpt>
      <trkpt lat="44.79631" lon="6.9303">
        <ele>1650.24</ele>
        <time>2018-09-12T12:10:31Z</time>
      </trkpt>
      <trkpt lat="44.79621" lon="6.93032">
        <ele>1648.32</ele>
        <time>2018-09-12T12:10:42Z</time>
      </trkpt>
      <trkpt lat="44.79613" lon="6.93032">
        <ele>1645.91</ele>
        <time>2018-09-12T12:10:53Z</time>
      </trkpt>
      <trkpt lat="44.79619" lon="6.93016">
        <ele>1643.03</ele>
        <time>2018-09-12T12:11:03Z</time>
      </trkpt>
      <trkpt lat="44.79624" lon="6.93003">
        <ele>1641.59</ele>
        <time>2018-09-12T12:11:14Z</time>
      </trkpt>
      <trkpt lat="44.7963" lon="6.92993">
        <ele>1638.22</ele>
        <time>2018-09-12T12:11:30Z</time>
      </trkpt>
      <trkpt lat="44.7964" lon="6.92987">
        <ele>1635.82</ele>
        <time>2018-09-12T12:11:40Z</time>
      </trkpt>
      <trkpt lat="44.79647" lon="6.92979">
        <ele>1633.9</ele>
        <time>2018-09-12T12:11:50Z</time>
      </trkpt>
      <trkpt lat="44.79654" lon="6.92968">
        <ele>1631.98</ele>
        <time>2018-09-12T12:12:00Z</time>
      </trkpt>
      <trkpt lat="44.79661" lon="6.92958">
        <ele>1629.57</ele>
        <time>2018-09-12T12:12:10Z</time>
      </trkpt>
      <trkpt lat="44.79671" lon="6.92953">
        <ele>1628.13</ele>
        <time>2018-09-12T12:12:20Z</time>
      </trkpt>
      <trkpt lat="44.79681" lon="6.9295">
        <ele>1626.69</ele>
        <time>2018-09-12T12:12:30Z</time>
      </trkpt>
      <trkpt lat="44.79689" lon="6.92941">
        <ele>1625.73</ele>
        <time>2018-09-12T12:12:40Z</time>
      </trkpt>
      <trkpt lat="44.79699" lon="6.92934">
        <ele>1623.8</ele>
        <time>2018-09-12T12:12:50Z</time>
      </trkpt>
      <trkpt lat="44.79709" lon="6.92933">
        <ele>1622.36</ele>
        <time>2018-09-12T12:13:00Z</time>
      </trkpt>
      <trkpt lat="44.79704" lon="6.92929">
        <ele>1619</ele>
        <time>2018-09-12T12:13:12Z</time>
      </trkpt>
      <trkpt lat="44.79695" lon="6.92924">
        <ele>1617.56</ele>
        <time>2018-09-12T12:13:22Z</time>
      </trkpt>
      <trkpt lat="44.79685" lon="6.92923">
        <ele>1615.15</ele>
        <time>2018-09-12T12:13:33Z</time>
      </trkpt>
      <trkpt lat="44.79674" lon="6.92928">
        <ele>1613.71</ele>
        <time>2018-09-12T12:13:44Z</time>
      </trkpt>
      <trkpt lat="44.79664" lon="6.9293">
        <ele>1611.79</ele>
        <time>2018-09-12T12:13:55Z</time>
      </trkpt>
      <trkpt lat="44.79653" lon="6.92927">
        <ele>1607.94</ele>
        <time>2018-09-12T12:14:08Z</time>
      </trkpt>
      <trkpt lat="44.79641" lon="6.92928">
        <ele>1603.62</ele>
        <time>2018-09-12T12:14:27Z</time>
      </trkpt>
      <trkpt lat="44.79625" lon="6.92921">
        <ele>1600.25</ele>
        <time>2018-09-12T12:14:44Z</time>
      </trkpt>
      <trkpt lat="44.79614" lon="6.92914">
        <ele>1599.29</ele>
        <time>2018-09-12T12:14:56Z</time>
      </trkpt>
      <trkpt lat="44.79603" lon="6.9291">
        <ele>1597.85</ele>
        <time>2018-09-12T12:15:28Z</time>
      </trkpt>
      <trkpt lat="44.79593" lon="6.92914">
        <ele>1597.37</ele>
        <time>2018-09-12T12:15:41Z</time>
      </trkpt>
      <trkpt lat="44.79583" lon="6.92917">
        <ele>1594.96</ele>
        <time>2018-09-12T12:15:53Z</time>
      </trkpt>
      <trkpt lat="44.79573" lon="6.92923">
        <ele>1592.08</ele>
        <time>2018-09-12T12:16:03Z</time>
      </trkpt>
      <trkpt lat="44.79564" lon="6.92927">
        <ele>1591.12</ele>
        <time>2018-09-12T12:16:28Z</time>
      </trkpt>
      <trkpt lat="44.79562" lon="6.92908">
        <ele>1587.75</ele>
        <time>2018-09-12T12:16:53Z</time>
      </trkpt>
      <trkpt lat="44.79559" lon="6.92894">
        <ele>1586.31</ele>
        <time>2018-09-12T12:17:06Z</time>
      </trkpt>
      <trkpt lat="44.79558" lon="6.92881">
        <ele>1583.91</ele>
        <time>2018-09-12T12:17:18Z</time>
      </trkpt>
      <trkpt lat="44.79557" lon="6.92867">
        <ele>1582.47</ele>
        <time>2018-09-12T12:17:30Z</time>
      </trkpt>
      <trkpt lat="44.79559" lon="6.92853">
        <ele>1580.54</ele>
        <time>2018-09-12T12:17:42Z</time>
      </trkpt>
      <trkpt lat="44.79561" lon="6.92838">
        <ele>1578.62</ele>
        <time>2018-09-12T12:17:54Z</time>
      </trkpt>
      <trkpt lat="44.79564" lon="6.92825">
        <ele>1577.18</ele>
        <time>2018-09-12T12:18:04Z</time>
      </trkpt>
      <trkpt lat="44.79568" lon="6.92812">
        <ele>1577.18</ele>
        <time>2018-09-12T12:18:18Z</time>
      </trkpt>
      <trkpt lat="44.79559" lon="6.92804">
        <ele>1576.7</ele>
        <time>2018-09-12T12:18:30Z</time>
      </trkpt>
      <trkpt lat="44.7955" lon="6.92797">
        <ele>1576.22</ele>
        <time>2018-09-12T12:18:40Z</time>
      </trkpt>
      <trkpt lat="44.79542" lon="6.92789">
        <ele>1575.74</ele>
        <time>2018-09-12T12:18:50Z</time>
      </trkpt>
      <trkpt lat="44.79534" lon="6.92781">
        <ele>1575.74</ele>
        <time>2018-09-12T12:19:00Z</time>
      </trkpt>
      <trkpt lat="44.79526" lon="6.92775">
        <ele>1576.22</ele>
        <time>2018-09-12T12:19:10Z</time>
      </trkpt>
      <trkpt lat="44.79517" lon="6.92766">
        <ele>1575.26</ele>
        <time>2018-09-12T12:19:21Z</time>
      </trkpt>
      <trkpt lat="44.79509" lon="6.92771">
        <ele>1574.3</ele>
        <time>2018-09-12T12:19:44Z</time>
      </trkpt>
      <trkpt lat="44.79508" lon="6.92783">
        <ele>1573.82</ele>
        <time>2018-09-12T12:19:57Z</time>
      </trkpt>
      <trkpt lat="44.79507" lon="6.92785">
        <ele>1574.3</ele>
        <time>2018-09-12T12:20:19Z</time>
      </trkpt>
      <trkpt lat="44.79509" lon="6.92783">
        <ele>1574.78</ele>
        <time>2018-09-12T12:20:44Z</time>
      </trkpt>
      <trkpt lat="44.79511" lon="6.92782">
        <ele>1552.19</ele>
        <time>2018-09-13T04:59:36Z</time>
      </trkpt>
      <trkpt lat="44.79511" lon="6.9279">
        <ele>1553.15</ele>
        <time>2018-09-13T05:02:56Z</time>
      </trkpt>
    </trkseg>
  </trk>
</gpx>